<?xml version="1.0" encoding="UTF-8" standalone="no" ?>
<gpx xmlns="http://www.topografix.com/GPX/1/1" xmlns:xsi="http://www.w3.org/2001/XMLSchema-instance" xsi:schemaLocation="http://www.topografix.com/GPX/1/1 http://www.topografix.com/GPX/1/1/gpx.xsd" version="1.1" creator="VisuGPX - https://www.visugpx.com">
  <metadata>
    <name>SICILE - PEDESTRE - Îles Éoliennes - Vulcano - Ascension du volcan</name>
    <desc><![CDATA[Superbe sortie impressionnante]]></desc>
  </metadata>
  <trk>
    <name><![CDATA[ACTIVE LOG 006]]></name>
    <trkseg>
      <trkpt lat="38.41442" lon="14.96001">
        <ele>-21.973022</ele>
        <time>2013-09-13T08:37:02Z</time>
      </trkpt>
      <trkpt lat="38.4144" lon="14.95997">
        <ele>-20.050415</ele>
        <time>2013-09-13T08:37:08Z</time>
      </trkpt>
      <trkpt lat="38.41437" lon="14.95995">
        <ele>-18.127808</ele>
        <time>2013-09-13T08:37:11Z</time>
      </trkpt>
      <trkpt lat="38.41433" lon="14.95994">
        <ele>-15.724365</ele>
        <time>2013-09-13T08:37:15Z</time>
      </trkpt>
      <trkpt lat="38.4143" lon="14.95993">
        <ele>-13.321045</ele>
        <time>2013-09-13T08:37:18Z</time>
      </trkpt>
      <trkpt lat="38.41423" lon="14.95988">
        <ele>-9.956543</ele>
        <time>2013-09-13T08:37:25Z</time>
      </trkpt>
      <trkpt lat="38.41422" lon="14.95987">
        <ele>-9.47583</ele>
        <time>2013-09-13T08:37:26Z</time>
      </trkpt>
      <trkpt lat="38.41418" lon="14.95985">
        <ele>-7.553101</ele>
        <time>2013-09-13T08:37:30Z</time>
      </trkpt>
      <trkpt lat="38.41412" lon="14.95982">
        <ele>-4.188599</ele>
        <time>2013-09-13T08:37:37Z</time>
      </trkpt>
      <trkpt lat="38.41407" lon="14.95981">
        <ele>-2.746704</ele>
        <time>2013-09-13T08:37:40Z</time>
      </trkpt>
      <trkpt lat="38.41401" lon="14.95981">
        <ele>-0.824097</ele>
        <time>2013-09-13T08:37:45Z</time>
      </trkpt>
      <trkpt lat="38.41396" lon="14.95981">
        <ele>1.579346</ele>
        <time>2013-09-13T08:37:49Z</time>
      </trkpt>
      <trkpt lat="38.41391" lon="14.9598">
        <ele>4.463257</ele>
        <time>2013-09-13T08:37:54Z</time>
      </trkpt>
      <trkpt lat="38.41381" lon="14.95974">
        <ele>7.827881</ele>
        <time>2013-09-13T08:38:07Z</time>
      </trkpt>
      <trkpt lat="38.41375" lon="14.95972">
        <ele>10.711792</ele>
        <time>2013-09-13T08:38:13Z</time>
      </trkpt>
      <trkpt lat="38.41369" lon="14.95968">
        <ele>10.711792</ele>
        <time>2013-09-13T08:38:19Z</time>
      </trkpt>
      <trkpt lat="38.41358" lon="14.95962">
        <ele>11.192505</ele>
        <time>2013-09-13T08:38:35Z</time>
      </trkpt>
      <trkpt lat="38.41341" lon="14.95941">
        <ele>11.673218</ele>
        <time>2013-09-13T08:38:54Z</time>
      </trkpt>
      <trkpt lat="38.41326" lon="14.95923">
        <ele>13.595825</ele>
        <time>2013-09-13T08:39:12Z</time>
      </trkpt>
      <trkpt lat="38.41308" lon="14.95906">
        <ele>14.076416</ele>
        <time>2013-09-13T08:39:29Z</time>
      </trkpt>
      <trkpt lat="38.41291" lon="14.95881">
        <ele>14.076416</ele>
        <time>2013-09-13T08:39:50Z</time>
      </trkpt>
      <trkpt lat="38.41272" lon="14.95856">
        <ele>15.03772</ele>
        <time>2013-09-13T08:40:12Z</time>
      </trkpt>
      <trkpt lat="38.41253" lon="14.95836">
        <ele>16.479736</ele>
        <time>2013-09-13T08:40:33Z</time>
      </trkpt>
      <trkpt lat="38.41243" lon="14.95823">
        <ele>17.441162</ele>
        <time>2013-09-13T08:40:47Z</time>
      </trkpt>
      <trkpt lat="38.41222" lon="14.95799">
        <ele>17.441162</ele>
        <time>2013-09-13T08:41:09Z</time>
      </trkpt>
      <trkpt lat="38.41203" lon="14.95777">
        <ele>17.441162</ele>
        <time>2013-09-13T08:41:30Z</time>
      </trkpt>
      <trkpt lat="38.41182" lon="14.95751">
        <ele>19.36377</ele>
        <time>2013-09-13T08:41:54Z</time>
      </trkpt>
      <trkpt lat="38.41164" lon="14.95729">
        <ele>20.324951</ele>
        <time>2013-09-13T08:42:16Z</time>
      </trkpt>
      <trkpt lat="38.41145" lon="14.95706">
        <ele>20.805664</ele>
        <time>2013-09-13T08:42:38Z</time>
      </trkpt>
      <trkpt lat="38.41131" lon="14.95691">
        <ele>21.766968</ele>
        <time>2013-09-13T08:42:55Z</time>
      </trkpt>
      <trkpt lat="38.41109" lon="14.95666">
        <ele>23.208984</ele>
        <time>2013-09-13T08:43:20Z</time>
      </trkpt>
      <trkpt lat="38.41088" lon="14.9564">
        <ele>24.170288</ele>
        <time>2013-09-13T08:43:45Z</time>
      </trkpt>
      <trkpt lat="38.41075" lon="14.95624">
        <ele>23.208984</ele>
        <time>2013-09-13T08:44:02Z</time>
      </trkpt>
      <trkpt lat="38.41056" lon="14.956">
        <ele>24.170288</ele>
        <time>2013-09-13T08:44:24Z</time>
      </trkpt>
      <trkpt lat="38.41042" lon="14.9558">
        <ele>25.131714</ele>
        <time>2013-09-13T08:44:41Z</time>
      </trkpt>
      <trkpt lat="38.41025" lon="14.95559">
        <ele>26.092896</ele>
        <time>2013-09-13T08:45:00Z</time>
      </trkpt>
      <trkpt lat="38.41017" lon="14.9555">
        <ele>26.573608</ele>
        <time>2013-09-13T08:45:09Z</time>
      </trkpt>
      <trkpt lat="38.40999" lon="14.95527">
        <ele>28.015503</ele>
        <time>2013-09-13T08:45:28Z</time>
      </trkpt>
      <trkpt lat="38.40982" lon="14.95507">
        <ele>29.93811</ele>
        <time>2013-09-13T08:45:47Z</time>
      </trkpt>
      <trkpt lat="38.40979" lon="14.95502">
        <ele>29.45752</ele>
        <time>2013-09-13T08:45:51Z</time>
      </trkpt>
      <trkpt lat="38.40962" lon="14.95482">
        <ele>31.380127</ele>
        <time>2013-09-13T08:46:08Z</time>
      </trkpt>
      <trkpt lat="38.40944" lon="14.95461">
        <ele>31.860718</ele>
        <time>2013-09-13T08:46:26Z</time>
      </trkpt>
      <trkpt lat="38.40924" lon="14.95435">
        <ele>34.26416</ele>
        <time>2013-09-13T08:46:47Z</time>
      </trkpt>
      <trkpt lat="38.40903" lon="14.95409">
        <ele>34.26416</ele>
        <time>2013-09-13T08:47:09Z</time>
      </trkpt>
      <trkpt lat="38.40886" lon="14.9539">
        <ele>36.186768</ele>
        <time>2013-09-13T08:47:27Z</time>
      </trkpt>
      <trkpt lat="38.40874" lon="14.95375">
        <ele>37.148071</ele>
        <time>2013-09-13T08:47:47Z</time>
      </trkpt>
      <trkpt lat="38.40873" lon="14.95375">
        <ele>37.628662</ele>
        <time>2013-09-13T08:47:48Z</time>
      </trkpt>
      <trkpt lat="38.40868" lon="14.95373">
        <ele>37.628662</ele>
        <time>2013-09-13T08:47:53Z</time>
      </trkpt>
      <trkpt lat="38.40865" lon="14.95372">
        <ele>38.109375</ele>
        <time>2013-09-13T08:48:04Z</time>
      </trkpt>
      <trkpt lat="38.40862" lon="14.95375">
        <ele>38.109375</ele>
        <time>2013-09-13T08:48:08Z</time>
      </trkpt>
      <trkpt lat="38.40846" lon="14.95386">
        <ele>40.993408</ele>
        <time>2013-09-13T08:48:27Z</time>
      </trkpt>
      <trkpt lat="38.4083" lon="14.95388">
        <ele>42.916016</ele>
        <time>2013-09-13T08:48:46Z</time>
      </trkpt>
      <trkpt lat="38.40816" lon="14.95395">
        <ele>44.838623</ele>
        <time>2013-09-13T08:49:06Z</time>
      </trkpt>
      <trkpt lat="38.40807" lon="14.95402">
        <ele>47.722534</ele>
        <time>2013-09-13T08:49:23Z</time>
      </trkpt>
      <trkpt lat="38.40799" lon="14.95414">
        <ele>50.606567</ele>
        <time>2013-09-13T08:49:40Z</time>
      </trkpt>
      <trkpt lat="38.40793" lon="14.95421">
        <ele>53.971191</ele>
        <time>2013-09-13T08:49:53Z</time>
      </trkpt>
      <trkpt lat="38.40781" lon="14.9543">
        <ele>56.855103</ele>
        <time>2013-09-13T08:50:13Z</time>
      </trkpt>
      <trkpt lat="38.40779" lon="14.95434">
        <ele>57.335815</ele>
        <time>2013-09-13T08:50:18Z</time>
      </trkpt>
      <trkpt lat="38.40785" lon="14.95451">
        <ele>59.739136</ele>
        <time>2013-09-13T08:50:34Z</time>
      </trkpt>
      <trkpt lat="38.40788" lon="14.95456">
        <ele>59.739136</ele>
        <time>2013-09-13T08:50:48Z</time>
      </trkpt>
      <trkpt lat="38.40794" lon="14.95477">
        <ele>61.661743</ele>
        <time>2013-09-13T08:51:06Z</time>
      </trkpt>
      <trkpt lat="38.40804" lon="14.955">
        <ele>62.142334</ele>
        <time>2013-09-13T08:51:23Z</time>
      </trkpt>
      <trkpt lat="38.40817" lon="14.95536">
        <ele>63.103638</ele>
        <time>2013-09-13T08:51:47Z</time>
      </trkpt>
      <trkpt lat="38.40825" lon="14.95562">
        <ele>65.50708</ele>
        <time>2013-09-13T08:52:04Z</time>
      </trkpt>
      <trkpt lat="38.40837" lon="14.9559">
        <ele>67.429688</ele>
        <time>2013-09-13T08:52:25Z</time>
      </trkpt>
      <trkpt lat="38.40829" lon="14.95591">
        <ele>69.832886</ele>
        <time>2013-09-13T08:52:39Z</time>
      </trkpt>
      <trkpt lat="38.40823" lon="14.95591">
        <ele>72.236206</ele>
        <time>2013-09-13T08:52:48Z</time>
      </trkpt>
      <trkpt lat="38.40818" lon="14.95586">
        <ele>75.60083</ele>
        <time>2013-09-13T08:52:58Z</time>
      </trkpt>
      <trkpt lat="38.40806" lon="14.95581">
        <ele>78.484741</ele>
        <time>2013-09-13T08:53:17Z</time>
      </trkpt>
      <trkpt lat="38.40799" lon="14.95579">
        <ele>79.926636</ele>
        <time>2013-09-13T08:53:29Z</time>
      </trkpt>
      <trkpt lat="38.40791" lon="14.95577">
        <ele>83.291382</ele>
        <time>2013-09-13T08:53:40Z</time>
      </trkpt>
      <trkpt lat="38.40782" lon="14.95576">
        <ele>85.213989</ele>
        <time>2013-09-13T08:53:53Z</time>
      </trkpt>
      <trkpt lat="38.40778" lon="14.95573">
        <ele>89.059326</ele>
        <time>2013-09-13T08:54:00Z</time>
      </trkpt>
      <trkpt lat="38.40777" lon="14.95573">
        <ele>88.098022</ele>
        <time>2013-09-13T08:54:01Z</time>
      </trkpt>
      <trkpt lat="38.40766" lon="14.95568">
        <ele>90.981934</ele>
        <time>2013-09-13T08:54:18Z</time>
      </trkpt>
      <trkpt lat="38.40754" lon="14.95561">
        <ele>93.385132</ele>
        <time>2013-09-13T08:54:35Z</time>
      </trkpt>
      <trkpt lat="38.40747" lon="14.95556">
        <ele>96.749878</ele>
        <time>2013-09-13T08:54:46Z</time>
      </trkpt>
      <trkpt lat="38.40735" lon="14.95556">
        <ele>98.191895</ele>
        <time>2013-09-13T08:55:00Z</time>
      </trkpt>
      <trkpt lat="38.40732" lon="14.95555">
        <ele>99.633789</ele>
        <time>2013-09-13T08:55:04Z</time>
      </trkpt>
      <trkpt lat="38.40726" lon="14.95552">
        <ele>99.153076</ele>
        <time>2013-09-13T08:55:11Z</time>
      </trkpt>
      <trkpt lat="38.40715" lon="14.95541">
        <ele>101.556396</ele>
        <time>2013-09-13T08:55:28Z</time>
      </trkpt>
      <trkpt lat="38.40703" lon="14.95534">
        <ele>105.401733</ele>
        <time>2013-09-13T08:55:45Z</time>
      </trkpt>
      <trkpt lat="38.40696" lon="14.9553">
        <ele>105.882446</ele>
        <time>2013-09-13T08:55:55Z</time>
      </trkpt>
      <trkpt lat="38.40695" lon="14.95529">
        <ele>104.44043</ele>
        <time>2013-09-13T08:55:57Z</time>
      </trkpt>
      <trkpt lat="38.40686" lon="14.95527">
        <ele>107.324341</ele>
        <time>2013-09-13T08:56:08Z</time>
      </trkpt>
      <trkpt lat="38.4067" lon="14.95524">
        <ele>110.688843</ele>
        <time>2013-09-13T08:56:25Z</time>
      </trkpt>
      <trkpt lat="38.40665" lon="14.95521">
        <ele>112.130981</ele>
        <time>2013-09-13T08:56:30Z</time>
      </trkpt>
      <trkpt lat="38.40649" lon="14.95516">
        <ele>115.495605</ele>
        <time>2013-09-13T08:56:48Z</time>
      </trkpt>
      <trkpt lat="38.40637" lon="14.95517">
        <ele>116.456787</ele>
        <time>2013-09-13T08:57:01Z</time>
      </trkpt>
      <trkpt lat="38.40622" lon="14.95509">
        <ele>119.34082</ele>
        <time>2013-09-13T08:57:20Z</time>
      </trkpt>
      <trkpt lat="38.40609" lon="14.95508">
        <ele>122.705444</ele>
        <time>2013-09-13T08:57:37Z</time>
      </trkpt>
      <trkpt lat="38.40595" lon="14.9551">
        <ele>126.069946</ele>
        <time>2013-09-13T08:57:56Z</time>
      </trkpt>
      <trkpt lat="38.40593" lon="14.95509">
        <ele>126.550659</ele>
        <time>2013-09-13T08:57:58Z</time>
      </trkpt>
      <trkpt lat="38.40591" lon="14.95507">
        <ele>127.031372</ele>
        <time>2013-09-13T08:58:01Z</time>
      </trkpt>
      <trkpt lat="38.40577" lon="14.95501">
        <ele>129.434692</ele>
        <time>2013-09-13T08:58:22Z</time>
      </trkpt>
      <trkpt lat="38.4057" lon="14.955">
        <ele>131.837891</ele>
        <time>2013-09-13T08:58:32Z</time>
      </trkpt>
      <trkpt lat="38.40561" lon="14.95501">
        <ele>135.202515</ele>
        <time>2013-09-13T08:58:44Z</time>
      </trkpt>
      <trkpt lat="38.40561" lon="14.95502">
        <ele>135.202515</ele>
        <time>2013-09-13T08:58:45Z</time>
      </trkpt>
      <trkpt lat="38.40547" lon="14.955">
        <ele>136.644653</ele>
        <time>2013-09-13T08:59:02Z</time>
      </trkpt>
      <trkpt lat="38.40542" lon="14.95499">
        <ele>137.125244</ele>
        <time>2013-09-13T08:59:08Z</time>
      </trkpt>
      <trkpt lat="38.40538" lon="14.955">
        <ele>139.047852</ele>
        <time>2013-09-13T08:59:12Z</time>
      </trkpt>
      <trkpt lat="38.40523" lon="14.95498">
        <ele>141.931763</ele>
        <time>2013-09-13T08:59:31Z</time>
      </trkpt>
      <trkpt lat="38.40512" lon="14.95497">
        <ele>143.85437</ele>
        <time>2013-09-13T08:59:45Z</time>
      </trkpt>
      <trkpt lat="38.40501" lon="14.95499">
        <ele>145.7771</ele>
        <time>2013-09-13T08:59:59Z</time>
      </trkpt>
      <trkpt lat="38.40487" lon="14.955">
        <ele>148.661011</ele>
        <time>2013-09-13T09:00:16Z</time>
      </trkpt>
      <trkpt lat="38.4048" lon="14.95502">
        <ele>150.583618</ele>
        <time>2013-09-13T09:00:24Z</time>
      </trkpt>
      <trkpt lat="38.40463" lon="14.95508">
        <ele>153.948364</ele>
        <time>2013-09-13T09:00:42Z</time>
      </trkpt>
      <trkpt lat="38.40449" lon="14.95511">
        <ele>156.832153</ele>
        <time>2013-09-13T09:00:57Z</time>
      </trkpt>
      <trkpt lat="38.40432" lon="14.95517">
        <ele>159.716187</ele>
        <time>2013-09-13T09:01:16Z</time>
      </trkpt>
      <trkpt lat="38.40417" lon="14.95524">
        <ele>163.561523</ele>
        <time>2013-09-13T09:01:33Z</time>
      </trkpt>
      <trkpt lat="38.40417" lon="14.95525">
        <ele>163.561523</ele>
        <time>2013-09-13T09:01:34Z</time>
      </trkpt>
      <trkpt lat="38.40402" lon="14.95532">
        <ele>166.926025</ele>
        <time>2013-09-13T09:01:51Z</time>
      </trkpt>
      <trkpt lat="38.40391" lon="14.95541">
        <ele>169.810059</ele>
        <time>2013-09-13T09:02:09Z</time>
      </trkpt>
      <trkpt lat="38.40383" lon="14.9555">
        <ele>172.213257</ele>
        <time>2013-09-13T09:02:27Z</time>
      </trkpt>
      <trkpt lat="38.40394" lon="14.95553">
        <ele>175.577881</ele>
        <time>2013-09-13T09:02:38Z</time>
      </trkpt>
      <trkpt lat="38.4041" lon="14.95558">
        <ele>177.981201</ele>
        <time>2013-09-13T09:02:54Z</time>
      </trkpt>
      <trkpt lat="38.40423" lon="14.95562">
        <ele>181.345825</ele>
        <time>2013-09-13T09:03:09Z</time>
      </trkpt>
      <trkpt lat="38.40431" lon="14.95565">
        <ele>184.229858</ele>
        <time>2013-09-13T09:03:27Z</time>
      </trkpt>
      <trkpt lat="38.40449" lon="14.95576">
        <ele>185.191162</ele>
        <time>2013-09-13T09:03:50Z</time>
      </trkpt>
      <trkpt lat="38.40465" lon="14.95585">
        <ele>188.555786</ele>
        <time>2013-09-13T09:04:10Z</time>
      </trkpt>
      <trkpt lat="38.40473" lon="14.95591">
        <ele>190.958984</ele>
        <time>2013-09-13T09:04:26Z</time>
      </trkpt>
      <trkpt lat="38.40476" lon="14.95592">
        <ele>191.439575</ele>
        <time>2013-09-13T09:04:29Z</time>
      </trkpt>
      <trkpt lat="38.40487" lon="14.95604">
        <ele>191.920288</ele>
        <time>2013-09-13T09:04:43Z</time>
      </trkpt>
      <trkpt lat="38.40494" lon="14.95613">
        <ele>193.362305</ele>
        <time>2013-09-13T09:04:51Z</time>
      </trkpt>
      <trkpt lat="38.40519" lon="14.95633">
        <ele>192.881714</ele>
        <time>2013-09-13T09:05:12Z</time>
      </trkpt>
      <trkpt lat="38.40528" lon="14.95642">
        <ele>195.284912</ele>
        <time>2013-09-13T09:05:22Z</time>
      </trkpt>
      <trkpt lat="38.40531" lon="14.95645">
        <ele>196.726929</ele>
        <time>2013-09-13T09:05:25Z</time>
      </trkpt>
      <trkpt lat="38.40534" lon="14.95647">
        <ele>197.20752</ele>
        <time>2013-09-13T09:05:28Z</time>
      </trkpt>
      <trkpt lat="38.40547" lon="14.95659">
        <ele>199.61084</ele>
        <time>2013-09-13T09:05:41Z</time>
      </trkpt>
      <trkpt lat="38.40557" lon="14.95668">
        <ele>202.014282</ele>
        <time>2013-09-13T09:05:51Z</time>
      </trkpt>
      <trkpt lat="38.40571" lon="14.95681">
        <ele>203.93689</ele>
        <time>2013-09-13T09:06:05Z</time>
      </trkpt>
      <trkpt lat="38.40584" lon="14.95694">
        <ele>206.340088</ele>
        <time>2013-09-13T09:06:20Z</time>
      </trkpt>
      <trkpt lat="38.40596" lon="14.95714">
        <ele>208.743408</ele>
        <time>2013-09-13T09:06:38Z</time>
      </trkpt>
      <trkpt lat="38.40604" lon="14.95726">
        <ele>212.108032</ele>
        <time>2013-09-13T09:06:51Z</time>
      </trkpt>
      <trkpt lat="38.40606" lon="14.9573">
        <ele>212.108032</ele>
        <time>2013-09-13T09:06:55Z</time>
      </trkpt>
      <trkpt lat="38.4061" lon="14.95741">
        <ele>215.472656</ele>
        <time>2013-09-13T09:07:07Z</time>
      </trkpt>
      <trkpt lat="38.40611" lon="14.95742">
        <ele>215.472656</ele>
        <time>2013-09-13T09:07:08Z</time>
      </trkpt>
      <trkpt lat="38.40616" lon="14.95757">
        <ele>218.356567</ele>
        <time>2013-09-13T09:07:23Z</time>
      </trkpt>
      <trkpt lat="38.40618" lon="14.95768">
        <ele>221.721191</ele>
        <time>2013-09-13T09:07:34Z</time>
      </trkpt>
      <trkpt lat="38.40624" lon="14.95786">
        <ele>224.605225</ele>
        <time>2013-09-13T09:07:52Z</time>
      </trkpt>
      <trkpt lat="38.40625" lon="14.95789">
        <ele>225.085938</ele>
        <time>2013-09-13T09:07:55Z</time>
      </trkpt>
      <trkpt lat="38.40629" lon="14.958">
        <ele>227.008545</ele>
        <time>2013-09-13T09:08:06Z</time>
      </trkpt>
      <trkpt lat="38.40633" lon="14.95814">
        <ele>231.334351</ele>
        <time>2013-09-13T09:08:20Z</time>
      </trkpt>
      <trkpt lat="38.40633" lon="14.95815">
        <ele>231.814941</ele>
        <time>2013-09-13T09:08:21Z</time>
      </trkpt>
      <trkpt lat="38.40636" lon="14.9582">
        <ele>234.699097</ele>
        <time>2013-09-13T09:08:27Z</time>
      </trkpt>
      <trkpt lat="38.40637" lon="14.95832">
        <ele>235.660278</ele>
        <time>2013-09-13T09:08:42Z</time>
      </trkpt>
      <trkpt lat="38.40639" lon="14.95841">
        <ele>239.505493</ele>
        <time>2013-09-13T09:08:54Z</time>
      </trkpt>
      <trkpt lat="38.40641" lon="14.95844">
        <ele>239.024902</ele>
        <time>2013-09-13T09:09:14Z</time>
      </trkpt>
      <trkpt lat="38.4064" lon="14.95844">
        <ele>241.428223</ele>
        <time>2013-09-13T09:09:22Z</time>
      </trkpt>
      <trkpt lat="38.40641" lon="14.95845">
        <ele>241.428223</ele>
        <time>2013-09-13T09:09:48Z</time>
      </trkpt>
      <trkpt lat="38.40643" lon="14.95848">
        <ele>242.389648</ele>
        <time>2013-09-13T09:10:05Z</time>
      </trkpt>
      <trkpt lat="38.40643" lon="14.95854">
        <ele>242.389648</ele>
        <time>2013-09-13T09:10:18Z</time>
      </trkpt>
      <trkpt lat="38.40647" lon="14.95859">
        <ele>243.831543</ele>
        <time>2013-09-13T09:10:35Z</time>
      </trkpt>
      <trkpt lat="38.40653" lon="14.95867">
        <ele>247.676758</ele>
        <time>2013-09-13T09:10:44Z</time>
      </trkpt>
      <trkpt lat="38.40644" lon="14.95872">
        <ele>250.0802</ele>
        <time>2013-09-13T09:11:00Z</time>
      </trkpt>
      <trkpt lat="38.40632" lon="14.9587">
        <ele>251.041382</ele>
        <time>2013-09-13T09:11:13Z</time>
      </trkpt>
      <trkpt lat="38.40616" lon="14.95863">
        <ele>250.0802</ele>
        <time>2013-09-13T09:11:28Z</time>
      </trkpt>
      <trkpt lat="38.40612" lon="14.9587">
        <ele>252.483398</ele>
        <time>2013-09-13T09:11:36Z</time>
      </trkpt>
      <trkpt lat="38.40605" lon="14.95879">
        <ele>253.444702</ele>
        <time>2013-09-13T09:11:50Z</time>
      </trkpt>
      <trkpt lat="38.40597" lon="14.95891">
        <ele>256.328735</ele>
        <time>2013-09-13T09:12:06Z</time>
      </trkpt>
      <trkpt lat="38.40596" lon="14.95893">
        <ele>257.290039</ele>
        <time>2013-09-13T09:12:08Z</time>
      </trkpt>
      <trkpt lat="38.40593" lon="14.95901">
        <ele>258.251343</ele>
        <time>2013-09-13T09:12:22Z</time>
      </trkpt>
      <trkpt lat="38.40592" lon="14.95902">
        <ele>257.290039</ele>
        <time>2013-09-13T09:12:31Z</time>
      </trkpt>
      <trkpt lat="38.40594" lon="14.95916">
        <ele>260.654541</ele>
        <time>2013-09-13T09:12:46Z</time>
      </trkpt>
      <trkpt lat="38.40596" lon="14.9592">
        <ele>262.577148</ele>
        <time>2013-09-13T09:12:50Z</time>
      </trkpt>
      <trkpt lat="38.40597" lon="14.95923">
        <ele>260.654541</ele>
        <time>2013-09-13T09:12:53Z</time>
      </trkpt>
      <trkpt lat="38.40598" lon="14.95932">
        <ele>264.499878</ele>
        <time>2013-09-13T09:13:03Z</time>
      </trkpt>
      <trkpt lat="38.40599" lon="14.95954">
        <ele>265.941895</ele>
        <time>2013-09-13T09:13:23Z</time>
      </trkpt>
      <trkpt lat="38.406" lon="14.95964">
        <ele>269.306519</ele>
        <time>2013-09-13T09:13:33Z</time>
      </trkpt>
      <trkpt lat="38.406" lon="14.95977">
        <ele>273.151855</ele>
        <time>2013-09-13T09:13:46Z</time>
      </trkpt>
      <trkpt lat="38.406" lon="14.95996">
        <ele>276.99707</ele>
        <time>2013-09-13T09:14:04Z</time>
      </trkpt>
      <trkpt lat="38.406" lon="14.95999">
        <ele>277.477661</ele>
        <time>2013-09-13T09:14:07Z</time>
      </trkpt>
      <trkpt lat="38.40598" lon="14.96011">
        <ele>279.880859</ele>
        <time>2013-09-13T09:14:21Z</time>
      </trkpt>
      <trkpt lat="38.40597" lon="14.96011">
        <ele>281.322998</ele>
        <time>2013-09-13T09:14:39Z</time>
      </trkpt>
      <trkpt lat="38.40595" lon="14.96012">
        <ele>281.322998</ele>
        <time>2013-09-13T09:15:03Z</time>
      </trkpt>
      <trkpt lat="38.40595" lon="14.96012">
        <ele>280.842407</ele>
        <time>2013-09-13T09:15:29Z</time>
      </trkpt>
      <trkpt lat="38.40595" lon="14.96012">
        <ele>280.361694</ele>
        <time>2013-09-13T09:15:45Z</time>
      </trkpt>
      <trkpt lat="38.40595" lon="14.96016">
        <ele>280.361694</ele>
        <time>2013-09-13T09:16:04Z</time>
      </trkpt>
      <trkpt lat="38.40597" lon="14.96022">
        <ele>280.361694</ele>
        <time>2013-09-13T09:16:11Z</time>
      </trkpt>
      <trkpt lat="38.40598" lon="14.96023">
        <ele>281.803589</ele>
        <time>2013-09-13T09:16:17Z</time>
      </trkpt>
      <trkpt lat="38.40603" lon="14.9603">
        <ele>280.842407</ele>
        <time>2013-09-13T09:16:58Z</time>
      </trkpt>
      <trkpt lat="38.40612" lon="14.96042">
        <ele>277.958252</ele>
        <time>2013-09-13T09:17:15Z</time>
      </trkpt>
      <trkpt lat="38.40615" lon="14.96056">
        <ele>278.438965</ele>
        <time>2013-09-13T09:17:28Z</time>
      </trkpt>
      <trkpt lat="38.40619" lon="14.96078">
        <ele>278.919678</ele>
        <time>2013-09-13T09:17:50Z</time>
      </trkpt>
      <trkpt lat="38.40617" lon="14.96089">
        <ele>278.919678</ele>
        <time>2013-09-13T09:18:10Z</time>
      </trkpt>
      <trkpt lat="38.40616" lon="14.9609">
        <ele>278.438965</ele>
        <time>2013-09-13T09:18:28Z</time>
      </trkpt>
      <trkpt lat="38.40617" lon="14.9609">
        <ele>279.400269</ele>
        <time>2013-09-13T09:18:33Z</time>
      </trkpt>
      <trkpt lat="38.40617" lon="14.96088">
        <ele>279.880859</ele>
        <time>2013-09-13T09:18:37Z</time>
      </trkpt>
      <trkpt lat="38.40618" lon="14.96081">
        <ele>280.361694</ele>
        <time>2013-09-13T09:18:45Z</time>
      </trkpt>
      <trkpt lat="38.40618" lon="14.96077">
        <ele>278.438965</ele>
        <time>2013-09-13T09:18:48Z</time>
      </trkpt>
      <trkpt lat="38.40617" lon="14.96074">
        <ele>276.516357</ele>
        <time>2013-09-13T09:18:51Z</time>
      </trkpt>
      <trkpt lat="38.40616" lon="14.96067">
        <ele>276.99707</ele>
        <time>2013-09-13T09:18:56Z</time>
      </trkpt>
      <trkpt lat="38.40616" lon="14.96062">
        <ele>277.958252</ele>
        <time>2013-09-13T09:19:00Z</time>
      </trkpt>
      <trkpt lat="38.40614" lon="14.96057">
        <ele>276.035645</ele>
        <time>2013-09-13T09:19:04Z</time>
      </trkpt>
      <trkpt lat="38.40613" lon="14.96055">
        <ele>279.400269</ele>
        <time>2013-09-13T09:19:06Z</time>
      </trkpt>
      <trkpt lat="38.40612" lon="14.96054">
        <ele>278.919678</ele>
        <time>2013-09-13T09:19:07Z</time>
      </trkpt>
      <trkpt lat="38.4061" lon="14.96051">
        <ele>276.035645</ele>
        <time>2013-09-13T09:19:11Z</time>
      </trkpt>
      <trkpt lat="38.40608" lon="14.96046">
        <ele>277.958252</ele>
        <time>2013-09-13T09:19:16Z</time>
      </trkpt>
      <trkpt lat="38.40607" lon="14.96045">
        <ele>281.803589</ele>
        <time>2013-09-13T09:19:17Z</time>
      </trkpt>
      <trkpt lat="38.40607" lon="14.96044">
        <ele>285.648804</ele>
        <time>2013-09-13T09:19:19Z</time>
      </trkpt>
      <trkpt lat="38.40607" lon="14.96044">
        <ele>285.168213</ele>
        <time>2013-09-13T09:19:20Z</time>
      </trkpt>
      <trkpt lat="38.40607" lon="14.96045">
        <ele>282.284302</ele>
        <time>2013-09-13T09:19:39Z</time>
      </trkpt>
      <trkpt lat="38.40607" lon="14.96045">
        <ele>285.168213</ele>
        <time>2013-09-13T09:19:43Z</time>
      </trkpt>
      <trkpt lat="38.40607" lon="14.96045">
        <ele>281.322998</ele>
        <time>2013-09-13T09:19:51Z</time>
      </trkpt>
      <trkpt lat="38.40607" lon="14.96045">
        <ele>280.842407</ele>
        <time>2013-09-13T09:19:53Z</time>
      </trkpt>
      <trkpt lat="38.40607" lon="14.96045">
        <ele>275.074463</ele>
        <time>2013-09-13T09:19:55Z</time>
      </trkpt>
      <trkpt lat="38.40607" lon="14.96045">
        <ele>275.074463</ele>
        <time>2013-09-13T09:19:56Z</time>
      </trkpt>
      <trkpt lat="38.40606" lon="14.96044">
        <ele>280.361694</ele>
        <time>2013-09-13T09:19:58Z</time>
      </trkpt>
      <trkpt lat="38.40606" lon="14.96043">
        <ele>286.129517</ele>
        <time>2013-09-13T09:20:00Z</time>
      </trkpt>
      <trkpt lat="38.40606" lon="14.96042">
        <ele>284.687622</ele>
        <time>2013-09-13T09:20:01Z</time>
      </trkpt>
      <trkpt lat="38.40606" lon="14.96041">
        <ele>280.361694</ele>
        <time>2013-09-13T09:20:02Z</time>
      </trkpt>
      <trkpt lat="38.40606" lon="14.96041">
        <ele>280.361694</ele>
        <time>2013-09-13T09:20:03Z</time>
      </trkpt>
      <trkpt lat="38.40606" lon="14.9604">
        <ele>278.438965</ele>
        <time>2013-09-13T09:20:05Z</time>
      </trkpt>
      <trkpt lat="38.40606" lon="14.96039">
        <ele>276.99707</ele>
        <time>2013-09-13T09:20:07Z</time>
      </trkpt>
      <trkpt lat="38.40606" lon="14.96039">
        <ele>279.400269</ele>
        <time>2013-09-13T09:20:09Z</time>
      </trkpt>
      <trkpt lat="38.40607" lon="14.9604">
        <ele>280.842407</ele>
        <time>2013-09-13T09:20:11Z</time>
      </trkpt>
      <trkpt lat="38.40608" lon="14.9604">
        <ele>280.361694</ele>
        <time>2013-09-13T09:20:20Z</time>
      </trkpt>
      <trkpt lat="38.40609" lon="14.96049">
        <ele>281.803589</ele>
        <time>2013-09-13T09:20:36Z</time>
      </trkpt>
      <trkpt lat="38.40615" lon="14.96059">
        <ele>282.284302</ele>
        <time>2013-09-13T09:20:47Z</time>
      </trkpt>
      <trkpt lat="38.40616" lon="14.96064">
        <ele>277.958252</ele>
        <time>2013-09-13T09:20:53Z</time>
      </trkpt>
      <trkpt lat="38.40616" lon="14.96064">
        <ele>277.958252</ele>
        <time>2013-09-13T09:20:54Z</time>
      </trkpt>
      <trkpt lat="38.40616" lon="14.96065">
        <ele>276.99707</ele>
        <time>2013-09-13T09:20:58Z</time>
      </trkpt>
      <trkpt lat="38.40616" lon="14.96065">
        <ele>280.842407</ele>
        <time>2013-09-13T09:21:09Z</time>
      </trkpt>
      <trkpt lat="38.40616" lon="14.96065">
        <ele>280.361694</ele>
        <time>2013-09-13T09:21:10Z</time>
      </trkpt>
      <trkpt lat="38.40616" lon="14.96066">
        <ele>281.803589</ele>
        <time>2013-09-13T09:21:14Z</time>
      </trkpt>
      <trkpt lat="38.40617" lon="14.96066">
        <ele>285.168213</ele>
        <time>2013-09-13T09:21:21Z</time>
      </trkpt>
      <trkpt lat="38.40617" lon="14.96065">
        <ele>279.880859</ele>
        <time>2013-09-13T09:21:28Z</time>
      </trkpt>
      <trkpt lat="38.40617" lon="14.96065">
        <ele>284.687622</ele>
        <time>2013-09-13T09:21:30Z</time>
      </trkpt>
      <trkpt lat="38.40617" lon="14.96066">
        <ele>283.726196</ele>
        <time>2013-09-13T09:21:31Z</time>
      </trkpt>
      <trkpt lat="38.40616" lon="14.96066">
        <ele>283.245605</ele>
        <time>2013-09-13T09:21:50Z</time>
      </trkpt>
      <trkpt lat="38.40616" lon="14.96066">
        <ele>281.322998</ele>
        <time>2013-09-13T09:22:13Z</time>
      </trkpt>
      <trkpt lat="38.40617" lon="14.96066">
        <ele>282.284302</ele>
        <time>2013-09-13T09:22:37Z</time>
      </trkpt>
      <trkpt lat="38.40617" lon="14.96067">
        <ele>279.880859</ele>
        <time>2013-09-13T09:22:58Z</time>
      </trkpt>
      <trkpt lat="38.40617" lon="14.96067">
        <ele>279.400269</ele>
        <time>2013-09-13T09:23:22Z</time>
      </trkpt>
      <trkpt lat="38.40617" lon="14.96066">
        <ele>279.880859</ele>
        <time>2013-09-13T09:23:57Z</time>
      </trkpt>
      <trkpt lat="38.40618" lon="14.96066">
        <ele>281.803589</ele>
        <time>2013-09-13T09:24:49Z</time>
      </trkpt>
      <trkpt lat="38.40619" lon="14.96075">
        <ele>282.765015</ele>
        <time>2013-09-13T09:25:14Z</time>
      </trkpt>
      <trkpt lat="38.40619" lon="14.96078">
        <ele>279.880859</ele>
        <time>2013-09-13T09:25:17Z</time>
      </trkpt>
      <trkpt lat="38.40619" lon="14.9608">
        <ele>278.438965</ele>
        <time>2013-09-13T09:25:20Z</time>
      </trkpt>
      <trkpt lat="38.40622" lon="14.96097">
        <ele>279.400269</ele>
        <time>2013-09-13T09:25:39Z</time>
      </trkpt>
      <trkpt lat="38.40623" lon="14.96108">
        <ele>279.880859</ele>
        <time>2013-09-13T09:25:56Z</time>
      </trkpt>
      <trkpt lat="38.40622" lon="14.96112">
        <ele>281.322998</ele>
        <time>2013-09-13T09:26:11Z</time>
      </trkpt>
      <trkpt lat="38.40624" lon="14.96119">
        <ele>280.361694</ele>
        <time>2013-09-13T09:26:29Z</time>
      </trkpt>
      <trkpt lat="38.40624" lon="14.96126">
        <ele>279.880859</ele>
        <time>2013-09-13T09:26:46Z</time>
      </trkpt>
      <trkpt lat="38.40622" lon="14.96132">
        <ele>279.400269</ele>
        <time>2013-09-13T09:27:09Z</time>
      </trkpt>
      <trkpt lat="38.40621" lon="14.96133">
        <ele>278.919678</ele>
        <time>2013-09-13T09:27:18Z</time>
      </trkpt>
      <trkpt lat="38.40621" lon="14.96116">
        <ele>279.880859</ele>
        <time>2013-09-13T09:27:34Z</time>
      </trkpt>
      <trkpt lat="38.40619" lon="14.96107">
        <ele>276.99707</ele>
        <time>2013-09-13T09:28:02Z</time>
      </trkpt>
      <trkpt lat="38.40614" lon="14.96095">
        <ele>277.477661</ele>
        <time>2013-09-13T09:28:19Z</time>
      </trkpt>
      <trkpt lat="38.40613" lon="14.96093">
        <ele>277.958252</ele>
        <time>2013-09-13T09:28:36Z</time>
      </trkpt>
      <trkpt lat="38.40613" lon="14.96094">
        <ele>278.919678</ele>
        <time>2013-09-13T09:29:00Z</time>
      </trkpt>
      <trkpt lat="38.40613" lon="14.96093">
        <ele>282.284302</ele>
        <time>2013-09-13T09:29:39Z</time>
      </trkpt>
      <trkpt lat="38.40613" lon="14.96094">
        <ele>280.361694</ele>
        <time>2013-09-13T09:29:45Z</time>
      </trkpt>
      <trkpt lat="38.40612" lon="14.96094">
        <ele>279.400269</ele>
        <time>2013-09-13T09:30:06Z</time>
      </trkpt>
      <trkpt lat="38.40613" lon="14.96094">
        <ele>278.438965</ele>
        <time>2013-09-13T09:31:00Z</time>
      </trkpt>
      <trkpt lat="38.40616" lon="14.96091">
        <ele>277.958252</ele>
        <time>2013-09-13T09:31:46Z</time>
      </trkpt>
      <trkpt lat="38.40618" lon="14.96076">
        <ele>277.958252</ele>
        <time>2013-09-13T09:32:01Z</time>
      </trkpt>
      <trkpt lat="38.40611" lon="14.96052">
        <ele>280.842407</ele>
        <time>2013-09-13T09:32:23Z</time>
      </trkpt>
      <trkpt lat="38.40608" lon="14.96044">
        <ele>277.477661</ele>
        <time>2013-09-13T09:32:30Z</time>
      </trkpt>
      <trkpt lat="38.40607" lon="14.96043">
        <ele>277.477661</ele>
        <time>2013-09-13T09:32:31Z</time>
      </trkpt>
      <trkpt lat="38.40605" lon="14.96024">
        <ele>280.361694</ele>
        <time>2013-09-13T09:32:46Z</time>
      </trkpt>
      <trkpt lat="38.40604" lon="14.96021">
        <ele>278.438965</ele>
        <time>2013-09-13T09:32:49Z</time>
      </trkpt>
      <trkpt lat="38.40596" lon="14.96003">
        <ele>278.919678</ele>
        <time>2013-09-13T09:33:06Z</time>
      </trkpt>
      <trkpt lat="38.4059" lon="14.9599">
        <ele>279.880859</ele>
        <time>2013-09-13T09:33:21Z</time>
      </trkpt>
      <trkpt lat="38.40586" lon="14.95983">
        <ele>280.361694</ele>
        <time>2013-09-13T09:33:31Z</time>
      </trkpt>
      <trkpt lat="38.40584" lon="14.9598">
        <ele>283.726196</ele>
        <time>2013-09-13T09:33:34Z</time>
      </trkpt>
      <trkpt lat="38.40578" lon="14.95974">
        <ele>283.726196</ele>
        <time>2013-09-13T09:33:42Z</time>
      </trkpt>
      <trkpt lat="38.40573" lon="14.95968">
        <ele>281.322998</ele>
        <time>2013-09-13T09:33:49Z</time>
      </trkpt>
      <trkpt lat="38.40565" lon="14.95956">
        <ele>282.284302</ele>
        <time>2013-09-13T09:34:01Z</time>
      </trkpt>
      <trkpt lat="38.40563" lon="14.95954">
        <ele>283.726196</ele>
        <time>2013-09-13T09:34:04Z</time>
      </trkpt>
      <trkpt lat="38.40557" lon="14.95949">
        <ele>287.09082</ele>
        <time>2013-09-13T09:34:11Z</time>
      </trkpt>
      <trkpt lat="38.40552" lon="14.95946">
        <ele>285.168213</ele>
        <time>2013-09-13T09:34:17Z</time>
      </trkpt>
      <trkpt lat="38.40547" lon="14.95943">
        <ele>289.01355</ele>
        <time>2013-09-13T09:34:22Z</time>
      </trkpt>
      <trkpt lat="38.40546" lon="14.95942">
        <ele>289.494141</ele>
        <time>2013-09-13T09:34:23Z</time>
      </trkpt>
      <trkpt lat="38.40544" lon="14.95942">
        <ele>290.455566</ele>
        <time>2013-09-13T09:34:25Z</time>
      </trkpt>
      <trkpt lat="38.40541" lon="14.95939">
        <ele>287.571411</ele>
        <time>2013-09-13T09:34:28Z</time>
      </trkpt>
      <trkpt lat="38.40538" lon="14.95936">
        <ele>289.494141</ele>
        <time>2013-09-13T09:34:31Z</time>
      </trkpt>
      <trkpt lat="38.40527" lon="14.95928">
        <ele>292.378174</ele>
        <time>2013-09-13T09:34:43Z</time>
      </trkpt>
      <trkpt lat="38.4052" lon="14.95925">
        <ele>288.052246</ele>
        <time>2013-09-13T09:34:52Z</time>
      </trkpt>
      <trkpt lat="38.40519" lon="14.95924">
        <ele>291.897461</ele>
        <time>2013-09-13T09:34:53Z</time>
      </trkpt>
      <trkpt lat="38.40511" lon="14.9592">
        <ele>290.936157</ele>
        <time>2013-09-13T09:35:00Z</time>
      </trkpt>
      <trkpt lat="38.40509" lon="14.95919">
        <ele>292.858765</ele>
        <time>2013-09-13T09:35:02Z</time>
      </trkpt>
      <trkpt lat="38.40506" lon="14.95917">
        <ele>293.820068</ele>
        <time>2013-09-13T09:35:05Z</time>
      </trkpt>
      <trkpt lat="38.40485" lon="14.9591">
        <ele>294.781372</ele>
        <time>2013-09-13T09:35:25Z</time>
      </trkpt>
      <trkpt lat="38.40479" lon="14.95909">
        <ele>294.300781</ele>
        <time>2013-09-13T09:35:42Z</time>
      </trkpt>
      <trkpt lat="38.4047" lon="14.95904">
        <ele>290.936157</ele>
        <time>2013-09-13T09:35:54Z</time>
      </trkpt>
      <trkpt lat="38.40468" lon="14.95902">
        <ele>293.339355</ele>
        <time>2013-09-13T09:36:05Z</time>
      </trkpt>
      <trkpt lat="38.40456" lon="14.95894">
        <ele>290.455566</ele>
        <time>2013-09-13T09:36:19Z</time>
      </trkpt>
      <trkpt lat="38.40452" lon="14.95891">
        <ele>291.897461</ele>
        <time>2013-09-13T09:36:23Z</time>
      </trkpt>
      <trkpt lat="38.40447" lon="14.95889">
        <ele>291.897461</ele>
        <time>2013-09-13T09:36:28Z</time>
      </trkpt>
      <trkpt lat="38.40426" lon="14.95879">
        <ele>293.339355</ele>
        <time>2013-09-13T09:36:49Z</time>
      </trkpt>
      <trkpt lat="38.40422" lon="14.95878">
        <ele>294.300781</ele>
        <time>2013-09-13T09:36:54Z</time>
      </trkpt>
      <trkpt lat="38.40411" lon="14.9587">
        <ele>295.261963</ele>
        <time>2013-09-13T09:37:09Z</time>
      </trkpt>
      <trkpt lat="38.40398" lon="14.9586">
        <ele>297.665405</ele>
        <time>2013-09-13T09:37:30Z</time>
      </trkpt>
      <trkpt lat="38.40389" lon="14.95855">
        <ele>301.029907</ele>
        <time>2013-09-13T09:37:48Z</time>
      </trkpt>
      <trkpt lat="38.40381" lon="14.95849">
        <ele>304.394653</ele>
        <time>2013-09-13T09:38:04Z</time>
      </trkpt>
      <trkpt lat="38.40374" lon="14.95842">
        <ele>307.759277</ele>
        <time>2013-09-13T09:38:21Z</time>
      </trkpt>
      <trkpt lat="38.40374" lon="14.95841">
        <ele>307.759277</ele>
        <time>2013-09-13T09:38:22Z</time>
      </trkpt>
      <trkpt lat="38.40367" lon="14.95833">
        <ele>311.123779</ele>
        <time>2013-09-13T09:38:36Z</time>
      </trkpt>
      <trkpt lat="38.40362" lon="14.95829">
        <ele>312.565796</ele>
        <time>2013-09-13T09:38:54Z</time>
      </trkpt>
      <trkpt lat="38.40355" lon="14.9584">
        <ele>314.969116</ele>
        <time>2013-09-13T09:39:12Z</time>
      </trkpt>
      <trkpt lat="38.40349" lon="14.95848">
        <ele>318.333618</ele>
        <time>2013-09-13T09:39:23Z</time>
      </trkpt>
      <trkpt lat="38.40337" lon="14.95858">
        <ele>321.698364</ele>
        <time>2013-09-13T09:39:41Z</time>
      </trkpt>
      <trkpt lat="38.40326" lon="14.95871">
        <ele>323.620972</ele>
        <time>2013-09-13T09:40:02Z</time>
      </trkpt>
      <trkpt lat="38.40318" lon="14.95883">
        <ele>326.985596</ele>
        <time>2013-09-13T09:40:19Z</time>
      </trkpt>
      <trkpt lat="38.40308" lon="14.95899">
        <ele>329.869507</ele>
        <time>2013-09-13T09:40:41Z</time>
      </trkpt>
      <trkpt lat="38.40303" lon="14.95906">
        <ele>333.234131</ele>
        <time>2013-09-13T09:40:51Z</time>
      </trkpt>
      <trkpt lat="38.40297" lon="14.95915">
        <ele>336.118164</ele>
        <time>2013-09-13T09:41:05Z</time>
      </trkpt>
      <trkpt lat="38.4029" lon="14.95931">
        <ele>339.002075</ele>
        <time>2013-09-13T09:41:25Z</time>
      </trkpt>
      <trkpt lat="38.40284" lon="14.95938">
        <ele>340.444092</ele>
        <time>2013-09-13T09:41:41Z</time>
      </trkpt>
      <trkpt lat="38.40277" lon="14.9595">
        <ele>343.327881</ele>
        <time>2013-09-13T09:41:55Z</time>
      </trkpt>
      <trkpt lat="38.40262" lon="14.9597">
        <ele>346.692627</ele>
        <time>2013-09-13T09:42:16Z</time>
      </trkpt>
      <trkpt lat="38.40256" lon="14.95978">
        <ele>349.576538</ele>
        <time>2013-09-13T09:42:25Z</time>
      </trkpt>
      <trkpt lat="38.40251" lon="14.95984">
        <ele>351.018433</ele>
        <time>2013-09-13T09:42:39Z</time>
      </trkpt>
      <trkpt lat="38.40245" lon="14.95991">
        <ele>349.576538</ele>
        <time>2013-09-13T09:42:59Z</time>
      </trkpt>
      <trkpt lat="38.40245" lon="14.9599">
        <ele>351.018433</ele>
        <time>2013-09-13T09:43:08Z</time>
      </trkpt>
      <trkpt lat="38.40246" lon="14.95988">
        <ele>351.499146</ele>
        <time>2013-09-13T09:43:18Z</time>
      </trkpt>
      <trkpt lat="38.40242" lon="14.95994">
        <ele>350.057251</ele>
        <time>2013-09-13T09:43:34Z</time>
      </trkpt>
      <trkpt lat="38.40245" lon="14.95991">
        <ele>350.057251</ele>
        <time>2013-09-13T09:43:41Z</time>
      </trkpt>
      <trkpt lat="38.4024" lon="14.95997">
        <ele>350.537842</ele>
        <time>2013-09-13T09:43:54Z</time>
      </trkpt>
      <trkpt lat="38.40238" lon="14.96">
        <ele>350.537842</ele>
        <time>2013-09-13T09:44:12Z</time>
      </trkpt>
      <trkpt lat="38.40235" lon="14.96002">
        <ele>351.018433</ele>
        <time>2013-09-13T09:44:32Z</time>
      </trkpt>
      <trkpt lat="38.40222" lon="14.96017">
        <ele>349.576538</ele>
        <time>2013-09-13T09:44:52Z</time>
      </trkpt>
      <trkpt lat="38.40213" lon="14.96038">
        <ele>350.057251</ele>
        <time>2013-09-13T09:45:12Z</time>
      </trkpt>
      <trkpt lat="38.40212" lon="14.9604">
        <ele>351.018433</ele>
        <time>2013-09-13T09:45:28Z</time>
      </trkpt>
      <trkpt lat="38.40212" lon="14.96043">
        <ele>351.499146</ele>
        <time>2013-09-13T09:46:02Z</time>
      </trkpt>
      <trkpt lat="38.40205" lon="14.9607">
        <ele>351.499146</ele>
        <time>2013-09-13T09:46:22Z</time>
      </trkpt>
      <trkpt lat="38.40206" lon="14.96075">
        <ele>351.499146</ele>
        <time>2013-09-13T09:46:37Z</time>
      </trkpt>
      <trkpt lat="38.40205" lon="14.96078">
        <ele>353.902588</ele>
        <time>2013-09-13T09:46:44Z</time>
      </trkpt>
      <trkpt lat="38.40196" lon="14.961">
        <ele>351.499146</ele>
        <time>2013-09-13T09:47:03Z</time>
      </trkpt>
      <trkpt lat="38.40195" lon="14.96123">
        <ele>351.499146</ele>
        <time>2013-09-13T09:47:21Z</time>
      </trkpt>
      <trkpt lat="38.40194" lon="14.96123">
        <ele>353.421875</ele>
        <time>2013-09-13T09:47:48Z</time>
      </trkpt>
      <trkpt lat="38.40194" lon="14.96123">
        <ele>350.537842</ele>
        <time>2013-09-13T09:47:51Z</time>
      </trkpt>
      <trkpt lat="38.40194" lon="14.96124">
        <ele>352.460571</ele>
        <time>2013-09-13T09:47:54Z</time>
      </trkpt>
      <trkpt lat="38.40193" lon="14.96132">
        <ele>351.979858</ele>
        <time>2013-09-13T09:48:02Z</time>
      </trkpt>
      <trkpt lat="38.40191" lon="14.96159">
        <ele>355.344482</ele>
        <time>2013-09-13T09:48:22Z</time>
      </trkpt>
      <trkpt lat="38.40191" lon="14.96163">
        <ele>353.902588</ele>
        <time>2013-09-13T09:48:24Z</time>
      </trkpt>
      <trkpt lat="38.40188" lon="14.96189">
        <ele>354.86377</ele>
        <time>2013-09-13T09:48:42Z</time>
      </trkpt>
      <trkpt lat="38.40187" lon="14.9621">
        <ele>356.305786</ele>
        <time>2013-09-13T09:48:56Z</time>
      </trkpt>
      <trkpt lat="38.40186" lon="14.96236">
        <ele>355.825195</ele>
        <time>2013-09-13T09:49:14Z</time>
      </trkpt>
      <trkpt lat="38.40186" lon="14.96268">
        <ele>359.189697</ele>
        <time>2013-09-13T09:49:34Z</time>
      </trkpt>
      <trkpt lat="38.40188" lon="14.96298">
        <ele>359.67041</ele>
        <time>2013-09-13T09:49:53Z</time>
      </trkpt>
      <trkpt lat="38.40192" lon="14.96325">
        <ele>361.59314</ele>
        <time>2013-09-13T09:50:11Z</time>
      </trkpt>
      <trkpt lat="38.40194" lon="14.9633">
        <ele>365.438354</ele>
        <time>2013-09-13T09:50:19Z</time>
      </trkpt>
      <trkpt lat="38.40194" lon="14.9633">
        <ele>365.438354</ele>
        <time>2013-09-13T09:50:20Z</time>
      </trkpt>
      <trkpt lat="38.40194" lon="14.96331">
        <ele>363.035034</ele>
        <time>2013-09-13T09:50:25Z</time>
      </trkpt>
      <trkpt lat="38.40194" lon="14.9633">
        <ele>366.880249</ele>
        <time>2013-09-13T09:50:40Z</time>
      </trkpt>
      <trkpt lat="38.40194" lon="14.9633">
        <ele>366.880249</ele>
        <time>2013-09-13T09:50:41Z</time>
      </trkpt>
      <trkpt lat="38.40194" lon="14.96331">
        <ele>363.035034</ele>
        <time>2013-09-13T09:50:43Z</time>
      </trkpt>
      <trkpt lat="38.40194" lon="14.96331">
        <ele>363.996338</ele>
        <time>2013-09-13T09:50:46Z</time>
      </trkpt>
      <trkpt lat="38.40195" lon="14.96342">
        <ele>361.59314</ele>
        <time>2013-09-13T09:50:54Z</time>
      </trkpt>
      <trkpt lat="38.40203" lon="14.96368">
        <ele>364.957642</ele>
        <time>2013-09-13T09:51:14Z</time>
      </trkpt>
      <trkpt lat="38.40214" lon="14.96395">
        <ele>363.515747</ele>
        <time>2013-09-13T09:51:34Z</time>
      </trkpt>
      <trkpt lat="38.40226" lon="14.9642">
        <ele>365.438354</ele>
        <time>2013-09-13T09:51:53Z</time>
      </trkpt>
      <trkpt lat="38.4024" lon="14.96439">
        <ele>366.880249</ele>
        <time>2013-09-13T09:52:11Z</time>
      </trkpt>
      <trkpt lat="38.40243" lon="14.96441">
        <ele>368.802979</ele>
        <time>2013-09-13T09:52:15Z</time>
      </trkpt>
      <trkpt lat="38.40257" lon="14.9646">
        <ele>370.244873</ele>
        <time>2013-09-13T09:52:36Z</time>
      </trkpt>
      <trkpt lat="38.40264" lon="14.9647">
        <ele>373.609497</ele>
        <time>2013-09-13T09:52:48Z</time>
      </trkpt>
      <trkpt lat="38.40267" lon="14.96475">
        <ele>376.012817</ele>
        <time>2013-09-13T09:52:55Z</time>
      </trkpt>
      <trkpt lat="38.40272" lon="14.96482">
        <ele>378.416138</ele>
        <time>2013-09-13T09:53:04Z</time>
      </trkpt>
      <trkpt lat="38.40289" lon="14.96486">
        <ele>379.858032</ele>
        <time>2013-09-13T09:53:22Z</time>
      </trkpt>
      <trkpt lat="38.4029" lon="14.96486">
        <ele>380.338745</ele>
        <time>2013-09-13T09:53:24Z</time>
      </trkpt>
      <trkpt lat="38.40295" lon="14.96488">
        <ele>380.338745</ele>
        <time>2013-09-13T09:53:29Z</time>
      </trkpt>
      <trkpt lat="38.40306" lon="14.96498">
        <ele>382.742065</ele>
        <time>2013-09-13T09:53:43Z</time>
      </trkpt>
      <trkpt lat="38.40321" lon="14.96509">
        <ele>386.106689</ele>
        <time>2013-09-13T09:54:00Z</time>
      </trkpt>
      <trkpt lat="38.40337" lon="14.96523">
        <ele>387.067993</ele>
        <time>2013-09-13T09:54:20Z</time>
      </trkpt>
      <trkpt lat="38.40347" lon="14.96539">
        <ele>387.548584</ele>
        <time>2013-09-13T09:54:38Z</time>
      </trkpt>
      <trkpt lat="38.40349" lon="14.96545">
        <ele>390.913208</ele>
        <time>2013-09-13T09:54:44Z</time>
      </trkpt>
      <trkpt lat="38.40349" lon="14.96545">
        <ele>390.913208</ele>
        <time>2013-09-13T09:54:45Z</time>
      </trkpt>
      <trkpt lat="38.40347" lon="14.96546">
        <ele>386.106689</ele>
        <time>2013-09-13T09:54:49Z</time>
      </trkpt>
      <trkpt lat="38.40347" lon="14.96546">
        <ele>389.951904</ele>
        <time>2013-09-13T09:54:50Z</time>
      </trkpt>
      <trkpt lat="38.40346" lon="14.96546">
        <ele>386.587402</ele>
        <time>2013-09-13T09:54:53Z</time>
      </trkpt>
      <trkpt lat="38.40346" lon="14.96545">
        <ele>386.587402</ele>
        <time>2013-09-13T09:54:54Z</time>
      </trkpt>
      <trkpt lat="38.40344" lon="14.96545">
        <ele>389.951904</ele>
        <time>2013-09-13T09:54:56Z</time>
      </trkpt>
      <trkpt lat="38.40343" lon="14.96544">
        <ele>392.835938</ele>
        <time>2013-09-13T09:54:57Z</time>
      </trkpt>
      <trkpt lat="38.40342" lon="14.96544">
        <ele>391.874512</ele>
        <time>2013-09-13T09:54:58Z</time>
      </trkpt>
      <trkpt lat="38.40338" lon="14.96542">
        <ele>391.874512</ele>
        <time>2013-09-13T09:55:05Z</time>
      </trkpt>
      <trkpt lat="38.40337" lon="14.96541">
        <ele>388.51001</ele>
        <time>2013-09-13T09:55:21Z</time>
      </trkpt>
      <trkpt lat="38.40335" lon="14.96542">
        <ele>393.316528</ele>
        <time>2013-09-13T09:55:24Z</time>
      </trkpt>
      <trkpt lat="38.40334" lon="14.96542">
        <ele>393.316528</ele>
        <time>2013-09-13T09:55:25Z</time>
      </trkpt>
      <trkpt lat="38.4033" lon="14.96542">
        <ele>392.835938</ele>
        <time>2013-09-13T09:55:31Z</time>
      </trkpt>
      <trkpt lat="38.40328" lon="14.96542">
        <ele>395.719849</ele>
        <time>2013-09-13T09:55:33Z</time>
      </trkpt>
      <trkpt lat="38.40324" lon="14.96543">
        <ele>392.355347</ele>
        <time>2013-09-13T09:55:38Z</time>
      </trkpt>
      <trkpt lat="38.40324" lon="14.96543">
        <ele>393.316528</ele>
        <time>2013-09-13T09:55:39Z</time>
      </trkpt>
      <trkpt lat="38.40324" lon="14.96543">
        <ele>398.60376</ele>
        <time>2013-09-13T09:55:41Z</time>
      </trkpt>
      <trkpt lat="38.40324" lon="14.96543">
        <ele>400.526489</ele>
        <time>2013-09-13T09:55:43Z</time>
      </trkpt>
      <trkpt lat="38.40324" lon="14.96543">
        <ele>400.045898</ele>
        <time>2013-09-13T09:55:57Z</time>
      </trkpt>
      <trkpt lat="38.40324" lon="14.96543">
        <ele>393.797241</ele>
        <time>2013-09-13T09:55:59Z</time>
      </trkpt>
      <trkpt lat="38.40324" lon="14.96543">
        <ele>390.432617</ele>
        <time>2013-09-13T09:56:00Z</time>
      </trkpt>
      <trkpt lat="38.40324" lon="14.96543">
        <ele>391.393799</ele>
        <time>2013-09-13T09:56:01Z</time>
      </trkpt>
      <trkpt lat="38.40324" lon="14.96543">
        <ele>394.758545</ele>
        <time>2013-09-13T09:56:02Z</time>
      </trkpt>
      <trkpt lat="38.40324" lon="14.96542">
        <ele>399.565063</ele>
        <time>2013-09-13T09:56:03Z</time>
      </trkpt>
      <trkpt lat="38.40324" lon="14.96542">
        <ele>399.084351</ele>
        <time>2013-09-13T09:56:04Z</time>
      </trkpt>
      <trkpt lat="38.40324" lon="14.96542">
        <ele>398.123169</ele>
        <time>2013-09-13T09:56:16Z</time>
      </trkpt>
      <trkpt lat="38.40324" lon="14.96542">
        <ele>399.084351</ele>
        <time>2013-09-13T09:56:33Z</time>
      </trkpt>
      <trkpt lat="38.40324" lon="14.96542">
        <ele>397.642456</ele>
        <time>2013-09-13T09:56:35Z</time>
      </trkpt>
      <trkpt lat="38.40324" lon="14.96543">
        <ele>396.681152</ele>
        <time>2013-09-13T09:57:03Z</time>
      </trkpt>
      <trkpt lat="38.40324" lon="14.96542">
        <ele>400.526489</ele>
        <time>2013-09-13T09:57:11Z</time>
      </trkpt>
      <trkpt lat="38.40324" lon="14.96543">
        <ele>395.719849</ele>
        <time>2013-09-13T09:57:15Z</time>
      </trkpt>
      <trkpt lat="38.40324" lon="14.96545">
        <ele>395.239136</ele>
        <time>2013-09-13T09:57:17Z</time>
      </trkpt>
      <trkpt lat="38.40324" lon="14.96547">
        <ele>394.758545</ele>
        <time>2013-09-13T09:57:23Z</time>
      </trkpt>
      <trkpt lat="38.40325" lon="14.96548">
        <ele>395.719849</ele>
        <time>2013-09-13T09:57:28Z</time>
      </trkpt>
      <trkpt lat="38.40326" lon="14.9655">
        <ele>394.277954</ele>
        <time>2013-09-13T09:57:30Z</time>
      </trkpt>
      <trkpt lat="38.40329" lon="14.96553">
        <ele>396.681152</ele>
        <time>2013-09-13T09:57:36Z</time>
      </trkpt>
      <trkpt lat="38.40337" lon="14.96556">
        <ele>398.123169</ele>
        <time>2013-09-13T09:57:48Z</time>
      </trkpt>
      <trkpt lat="38.40338" lon="14.96557">
        <ele>396.200562</ele>
        <time>2013-09-13T09:57:51Z</time>
      </trkpt>
      <trkpt lat="38.40338" lon="14.96558">
        <ele>394.758545</ele>
        <time>2013-09-13T09:57:53Z</time>
      </trkpt>
      <trkpt lat="38.40342" lon="14.96562">
        <ele>394.758545</ele>
        <time>2013-09-13T09:58:01Z</time>
      </trkpt>
      <trkpt lat="38.40348" lon="14.96567">
        <ele>395.719849</ele>
        <time>2013-09-13T09:58:12Z</time>
      </trkpt>
      <trkpt lat="38.40353" lon="14.96568">
        <ele>392.835938</ele>
        <time>2013-09-13T09:58:18Z</time>
      </trkpt>
      <trkpt lat="38.40358" lon="14.96569">
        <ele>390.913208</ele>
        <time>2013-09-13T09:58:24Z</time>
      </trkpt>
      <trkpt lat="38.40358" lon="14.96569">
        <ele>392.355347</ele>
        <time>2013-09-13T09:58:26Z</time>
      </trkpt>
      <trkpt lat="38.40358" lon="14.96569">
        <ele>392.835938</ele>
        <time>2013-09-13T09:58:41Z</time>
      </trkpt>
      <trkpt lat="38.40358" lon="14.96569">
        <ele>393.316528</ele>
        <time>2013-09-13T09:58:55Z</time>
      </trkpt>
      <trkpt lat="38.40358" lon="14.96569">
        <ele>390.913208</ele>
        <time>2013-09-13T09:58:58Z</time>
      </trkpt>
      <trkpt lat="38.40358" lon="14.96569">
        <ele>387.067993</ele>
        <time>2013-09-13T09:59:03Z</time>
      </trkpt>
      <trkpt lat="38.40358" lon="14.96569">
        <ele>390.432617</ele>
        <time>2013-09-13T09:59:04Z</time>
      </trkpt>
      <trkpt lat="38.40358" lon="14.96569">
        <ele>383.703247</ele>
        <time>2013-09-13T09:59:10Z</time>
      </trkpt>
      <trkpt lat="38.40358" lon="14.96569">
        <ele>385.625977</ele>
        <time>2013-09-13T09:59:11Z</time>
      </trkpt>
      <trkpt lat="38.40357" lon="14.96569">
        <ele>388.51001</ele>
        <time>2013-09-13T09:59:12Z</time>
      </trkpt>
      <trkpt lat="38.40357" lon="14.96568">
        <ele>384.664795</ele>
        <time>2013-09-13T09:59:14Z</time>
      </trkpt>
      <trkpt lat="38.40357" lon="14.96568">
        <ele>388.029297</ele>
        <time>2013-09-13T09:59:15Z</time>
      </trkpt>
      <trkpt lat="38.40358" lon="14.96568">
        <ele>390.913208</ele>
        <time>2013-09-13T09:59:17Z</time>
      </trkpt>
      <trkpt lat="38.40358" lon="14.96568">
        <ele>382.261353</ele>
        <time>2013-09-13T09:59:24Z</time>
      </trkpt>
      <trkpt lat="38.40357" lon="14.96566">
        <ele>389.951904</ele>
        <time>2013-09-13T09:59:28Z</time>
      </trkpt>
      <trkpt lat="38.40357" lon="14.96566">
        <ele>389.951904</ele>
        <time>2013-09-13T09:59:29Z</time>
      </trkpt>
      <trkpt lat="38.40357" lon="14.96565">
        <ele>386.587402</ele>
        <time>2013-09-13T09:59:30Z</time>
      </trkpt>
      <trkpt lat="38.40357" lon="14.96563">
        <ele>382.261353</ele>
        <time>2013-09-13T09:59:32Z</time>
      </trkpt>
      <trkpt lat="38.40357" lon="14.96562">
        <ele>382.261353</ele>
        <time>2013-09-13T09:59:33Z</time>
      </trkpt>
      <trkpt lat="38.40356" lon="14.9656">
        <ele>384.664795</ele>
        <time>2013-09-13T09:59:35Z</time>
      </trkpt>
      <trkpt lat="38.40356" lon="14.96558">
        <ele>388.990601</ele>
        <time>2013-09-13T09:59:38Z</time>
      </trkpt>
      <trkpt lat="38.40356" lon="14.96557">
        <ele>383.703247</ele>
        <time>2013-09-13T09:59:39Z</time>
      </trkpt>
      <trkpt lat="38.40355" lon="14.96556">
        <ele>382.742065</ele>
        <time>2013-09-13T09:59:41Z</time>
      </trkpt>
      <trkpt lat="38.40355" lon="14.96554">
        <ele>383.703247</ele>
        <time>2013-09-13T09:59:43Z</time>
      </trkpt>
      <trkpt lat="38.40352" lon="14.9655">
        <ele>391.393799</ele>
        <time>2013-09-13T10:00:00Z</time>
      </trkpt>
      <trkpt lat="38.40353" lon="14.96549">
        <ele>385.145386</ele>
        <time>2013-09-13T10:00:19Z</time>
      </trkpt>
      <trkpt lat="38.40353" lon="14.96548">
        <ele>388.51001</ele>
        <time>2013-09-13T10:00:23Z</time>
      </trkpt>
      <trkpt lat="38.40353" lon="14.96548">
        <ele>387.067993</ele>
        <time>2013-09-13T10:00:24Z</time>
      </trkpt>
      <trkpt lat="38.40352" lon="14.96547">
        <ele>387.548584</ele>
        <time>2013-09-13T10:00:35Z</time>
      </trkpt>
      <trkpt lat="38.4035" lon="14.96544">
        <ele>384.664795</ele>
        <time>2013-09-13T10:00:45Z</time>
      </trkpt>
      <trkpt lat="38.40349" lon="14.9654">
        <ele>384.184082</ele>
        <time>2013-09-13T10:00:51Z</time>
      </trkpt>
      <trkpt lat="38.40348" lon="14.96533">
        <ele>386.106689</ele>
        <time>2013-09-13T10:01:00Z</time>
      </trkpt>
      <trkpt lat="38.40347" lon="14.96531">
        <ele>383.703247</ele>
        <time>2013-09-13T10:01:09Z</time>
      </trkpt>
      <trkpt lat="38.40346" lon="14.96528">
        <ele>382.261353</ele>
        <time>2013-09-13T10:01:12Z</time>
      </trkpt>
      <trkpt lat="38.40337" lon="14.96522">
        <ele>386.106689</ele>
        <time>2013-09-13T10:01:23Z</time>
      </trkpt>
      <trkpt lat="38.40324" lon="14.9651">
        <ele>387.067993</ele>
        <time>2013-09-13T10:01:41Z</time>
      </trkpt>
      <trkpt lat="38.40316" lon="14.96503">
        <ele>387.548584</ele>
        <time>2013-09-13T10:01:51Z</time>
      </trkpt>
      <trkpt lat="38.40312" lon="14.96501">
        <ele>385.625977</ele>
        <time>2013-09-13T10:01:56Z</time>
      </trkpt>
      <trkpt lat="38.40309" lon="14.96499">
        <ele>385.145386</ele>
        <time>2013-09-13T10:02:00Z</time>
      </trkpt>
      <trkpt lat="38.40305" lon="14.96496">
        <ele>381.78064</ele>
        <time>2013-09-13T10:02:04Z</time>
      </trkpt>
      <trkpt lat="38.403" lon="14.9649">
        <ele>378.416138</ele>
        <time>2013-09-13T10:02:11Z</time>
      </trkpt>
      <trkpt lat="38.40299" lon="14.96489">
        <ele>379.858032</ele>
        <time>2013-09-13T10:02:12Z</time>
      </trkpt>
      <trkpt lat="38.40298" lon="14.96488">
        <ele>383.703247</ele>
        <time>2013-09-13T10:02:13Z</time>
      </trkpt>
      <trkpt lat="38.40297" lon="14.96488">
        <ele>383.222656</ele>
        <time>2013-09-13T10:02:14Z</time>
      </trkpt>
      <trkpt lat="38.40279" lon="14.96482">
        <ele>380.819458</ele>
        <time>2013-09-13T10:02:31Z</time>
      </trkpt>
      <trkpt lat="38.40271" lon="14.96479">
        <ele>377.935425</ele>
        <time>2013-09-13T10:02:42Z</time>
      </trkpt>
      <trkpt lat="38.40266" lon="14.96476">
        <ele>374.570801</ele>
        <time>2013-09-13T10:02:50Z</time>
      </trkpt>
      <trkpt lat="38.40265" lon="14.96475">
        <ele>374.570801</ele>
        <time>2013-09-13T10:02:51Z</time>
      </trkpt>
      <trkpt lat="38.40263" lon="14.96471">
        <ele>374.090088</ele>
        <time>2013-09-13T10:02:57Z</time>
      </trkpt>
      <trkpt lat="38.40261" lon="14.96467">
        <ele>370.725586</ele>
        <time>2013-09-13T10:03:02Z</time>
      </trkpt>
      <trkpt lat="38.40255" lon="14.96459">
        <ele>367.360962</ele>
        <time>2013-09-13T10:03:13Z</time>
      </trkpt>
      <trkpt lat="38.40255" lon="14.96459">
        <ele>366.880249</ele>
        <time>2013-09-13T10:03:14Z</time>
      </trkpt>
      <trkpt lat="38.40255" lon="14.96458">
        <ele>368.802979</ele>
        <time>2013-09-13T10:03:16Z</time>
      </trkpt>
      <trkpt lat="38.40247" lon="14.96446">
        <ele>365.438354</ele>
        <time>2013-09-13T10:03:33Z</time>
      </trkpt>
      <trkpt lat="38.40238" lon="14.96436">
        <ele>363.996338</ele>
        <time>2013-09-13T10:03:48Z</time>
      </trkpt>
      <trkpt lat="38.40236" lon="14.96433">
        <ele>364.957642</ele>
        <time>2013-09-13T10:03:52Z</time>
      </trkpt>
      <trkpt lat="38.40232" lon="14.96428">
        <ele>365.918945</ele>
        <time>2013-09-13T10:03:58Z</time>
      </trkpt>
      <trkpt lat="38.40229" lon="14.96425">
        <ele>363.035034</ele>
        <time>2013-09-13T10:04:02Z</time>
      </trkpt>
      <trkpt lat="38.40229" lon="14.96424">
        <ele>363.035034</ele>
        <time>2013-09-13T10:04:03Z</time>
      </trkpt>
      <trkpt lat="38.40227" lon="14.96422">
        <ele>364.476929</ele>
        <time>2013-09-13T10:04:05Z</time>
      </trkpt>
      <trkpt lat="38.40215" lon="14.96397">
        <ele>363.035034</ele>
        <time>2013-09-13T10:04:26Z</time>
      </trkpt>
      <trkpt lat="38.40204" lon="14.9637">
        <ele>362.07373</ele>
        <time>2013-09-13T10:04:47Z</time>
      </trkpt>
      <trkpt lat="38.40202" lon="14.96365">
        <ele>360.151123</ele>
        <time>2013-09-13T10:04:53Z</time>
      </trkpt>
      <trkpt lat="38.402" lon="14.9636">
        <ele>363.035034</ele>
        <time>2013-09-13T10:05:02Z</time>
      </trkpt>
      <trkpt lat="38.40197" lon="14.9635">
        <ele>363.515747</ele>
        <time>2013-09-13T10:05:14Z</time>
      </trkpt>
      <trkpt lat="38.40194" lon="14.96333">
        <ele>359.189697</ele>
        <time>2013-09-13T10:05:27Z</time>
      </trkpt>
      <trkpt lat="38.40192" lon="14.96325">
        <ele>362.554321</ele>
        <time>2013-09-13T10:05:33Z</time>
      </trkpt>
      <trkpt lat="38.40191" lon="14.96318">
        <ele>359.67041</ele>
        <time>2013-09-13T10:05:38Z</time>
      </trkpt>
      <trkpt lat="38.4019" lon="14.96315">
        <ele>358.708984</ele>
        <time>2013-09-13T10:05:40Z</time>
      </trkpt>
      <trkpt lat="38.40188" lon="14.96301">
        <ele>355.344482</ele>
        <time>2013-09-13T10:05:50Z</time>
      </trkpt>
      <trkpt lat="38.40188" lon="14.96295">
        <ele>355.825195</ele>
        <time>2013-09-13T10:05:54Z</time>
      </trkpt>
      <trkpt lat="38.40188" lon="14.96292">
        <ele>358.708984</ele>
        <time>2013-09-13T10:05:56Z</time>
      </trkpt>
      <trkpt lat="38.40187" lon="14.96277">
        <ele>357.747803</ele>
        <time>2013-09-13T10:06:06Z</time>
      </trkpt>
      <trkpt lat="38.40186" lon="14.96268">
        <ele>358.228394</ele>
        <time>2013-09-13T10:06:13Z</time>
      </trkpt>
      <trkpt lat="38.40185" lon="14.96262">
        <ele>354.383179</ele>
        <time>2013-09-13T10:06:18Z</time>
      </trkpt>
      <trkpt lat="38.40185" lon="14.96259">
        <ele>353.421875</ele>
        <time>2013-09-13T10:06:20Z</time>
      </trkpt>
      <trkpt lat="38.40185" lon="14.96249">
        <ele>356.786377</ele>
        <time>2013-09-13T10:06:27Z</time>
      </trkpt>
      <trkpt lat="38.40185" lon="14.96247">
        <ele>356.786377</ele>
        <time>2013-09-13T10:06:28Z</time>
      </trkpt>
      <trkpt lat="38.40186" lon="14.96232">
        <ele>357.747803</ele>
        <time>2013-09-13T10:06:38Z</time>
      </trkpt>
      <trkpt lat="38.40187" lon="14.96224">
        <ele>353.902588</ele>
        <time>2013-09-13T10:06:44Z</time>
      </trkpt>
      <trkpt lat="38.40187" lon="14.96222">
        <ele>353.902588</ele>
        <time>2013-09-13T10:06:45Z</time>
      </trkpt>
      <trkpt lat="38.40188" lon="14.96196">
        <ele>353.902588</ele>
        <time>2013-09-13T10:07:03Z</time>
      </trkpt>
      <trkpt lat="38.40188" lon="14.96189">
        <ele>357.26709</ele>
        <time>2013-09-13T10:07:08Z</time>
      </trkpt>
      <trkpt lat="38.40191" lon="14.96173">
        <ele>353.902588</ele>
        <time>2013-09-13T10:07:19Z</time>
      </trkpt>
      <trkpt lat="38.40192" lon="14.96142">
        <ele>352.460571</ele>
        <time>2013-09-13T10:07:41Z</time>
      </trkpt>
      <trkpt lat="38.40195" lon="14.96113">
        <ele>351.018433</ele>
        <time>2013-09-13T10:08:01Z</time>
      </trkpt>
      <trkpt lat="38.40198" lon="14.96097">
        <ele>351.979858</ele>
        <time>2013-09-13T10:08:12Z</time>
      </trkpt>
      <trkpt lat="38.40205" lon="14.96069">
        <ele>351.979858</ele>
        <time>2013-09-13T10:08:33Z</time>
      </trkpt>
      <trkpt lat="38.4021" lon="14.96048">
        <ele>349.095825</ele>
        <time>2013-09-13T10:08:49Z</time>
      </trkpt>
      <trkpt lat="38.4022" lon="14.96021">
        <ele>349.576538</ele>
        <time>2013-09-13T10:09:10Z</time>
      </trkpt>
      <trkpt lat="38.40234" lon="14.96002">
        <ele>351.979858</ele>
        <time>2013-09-13T10:09:30Z</time>
      </trkpt>
      <trkpt lat="38.40246" lon="14.95988">
        <ele>349.576538</ele>
        <time>2013-09-13T10:09:46Z</time>
      </trkpt>
      <trkpt lat="38.40262" lon="14.95965">
        <ele>347.653931</ele>
        <time>2013-09-13T10:10:10Z</time>
      </trkpt>
      <trkpt lat="38.40263" lon="14.95965">
        <ele>347.173218</ele>
        <time>2013-09-13T10:10:11Z</time>
      </trkpt>
      <trkpt lat="38.40276" lon="14.95945">
        <ele>345.25061</ele>
        <time>2013-09-13T10:10:33Z</time>
      </trkpt>
      <trkpt lat="38.40282" lon="14.95932">
        <ele>341.885986</ele>
        <time>2013-09-13T10:11:00Z</time>
      </trkpt>
      <trkpt lat="38.40282" lon="14.95931">
        <ele>341.885986</ele>
        <time>2013-09-13T10:11:01Z</time>
      </trkpt>
      <trkpt lat="38.40289" lon="14.95922">
        <ele>339.002075</ele>
        <time>2013-09-13T10:11:14Z</time>
      </trkpt>
      <trkpt lat="38.4029" lon="14.95922">
        <ele>339.002075</ele>
        <time>2013-09-13T10:11:15Z</time>
      </trkpt>
      <trkpt lat="38.40294" lon="14.95915">
        <ele>337.079468</ele>
        <time>2013-09-13T10:11:32Z</time>
      </trkpt>
      <trkpt lat="38.40302" lon="14.95904">
        <ele>333.714722</ele>
        <time>2013-09-13T10:11:48Z</time>
      </trkpt>
      <trkpt lat="38.40305" lon="14.959">
        <ele>330.830933</ele>
        <time>2013-09-13T10:11:58Z</time>
      </trkpt>
      <trkpt lat="38.40307" lon="14.95896">
        <ele>332.75354</ele>
        <time>2013-09-13T10:12:04Z</time>
      </trkpt>
      <trkpt lat="38.40313" lon="14.95884">
        <ele>330.830933</ele>
        <time>2013-09-13T10:12:20Z</time>
      </trkpt>
      <trkpt lat="38.40322" lon="14.95872">
        <ele>328.908325</ele>
        <time>2013-09-13T10:12:40Z</time>
      </trkpt>
      <trkpt lat="38.40333" lon="14.95861">
        <ele>326.504883</ele>
        <time>2013-09-13T10:13:01Z</time>
      </trkpt>
      <trkpt lat="38.4034" lon="14.95861">
        <ele>323.140381</ele>
        <time>2013-09-13T10:13:14Z</time>
      </trkpt>
      <trkpt lat="38.40342" lon="14.95862">
        <ele>322.178955</ele>
        <time>2013-09-13T10:13:36Z</time>
      </trkpt>
      <trkpt lat="38.40343" lon="14.95861">
        <ele>322.659668</ele>
        <time>2013-09-13T10:14:19Z</time>
      </trkpt>
      <trkpt lat="38.40349" lon="14.9586">
        <ele>320.737061</ele>
        <time>2013-09-13T10:14:45Z</time>
      </trkpt>
      <trkpt lat="38.40354" lon="14.95858">
        <ele>317.853027</ele>
        <time>2013-09-13T10:14:55Z</time>
      </trkpt>
      <trkpt lat="38.40361" lon="14.95859">
        <ele>316.411011</ele>
        <time>2013-09-13T10:15:16Z</time>
      </trkpt>
      <trkpt lat="38.40362" lon="14.95859">
        <ele>314.969116</ele>
        <time>2013-09-13T10:15:18Z</time>
      </trkpt>
      <trkpt lat="38.40364" lon="14.95858">
        <ele>314.488403</ele>
        <time>2013-09-13T10:15:23Z</time>
      </trkpt>
      <trkpt lat="38.40367" lon="14.9586">
        <ele>313.046509</ele>
        <time>2013-09-13T10:15:38Z</time>
      </trkpt>
      <trkpt lat="38.40368" lon="14.9586">
        <ele>312.565796</ele>
        <time>2013-09-13T10:15:39Z</time>
      </trkpt>
      <trkpt lat="38.40375" lon="14.95861">
        <ele>309.681885</ele>
        <time>2013-09-13T10:15:48Z</time>
      </trkpt>
      <trkpt lat="38.40387" lon="14.95868">
        <ele>305.83667</ele>
        <time>2013-09-13T10:16:03Z</time>
      </trkpt>
      <trkpt lat="38.40393" lon="14.95869">
        <ele>304.394653</ele>
        <time>2013-09-13T10:16:12Z</time>
      </trkpt>
      <trkpt lat="38.40396" lon="14.95871">
        <ele>302.471924</ele>
        <time>2013-09-13T10:16:15Z</time>
      </trkpt>
      <trkpt lat="38.40403" lon="14.95871">
        <ele>301.991333</ele>
        <time>2013-09-13T10:16:23Z</time>
      </trkpt>
      <trkpt lat="38.40409" lon="14.95875">
        <ele>301.51062</ele>
        <time>2013-09-13T10:16:29Z</time>
      </trkpt>
      <trkpt lat="38.40413" lon="14.95877">
        <ele>299.588013</ele>
        <time>2013-09-13T10:16:33Z</time>
      </trkpt>
      <trkpt lat="38.40421" lon="14.95883">
        <ele>296.704102</ele>
        <time>2013-09-13T10:16:45Z</time>
      </trkpt>
      <trkpt lat="38.40422" lon="14.95884">
        <ele>296.704102</ele>
        <time>2013-09-13T10:16:46Z</time>
      </trkpt>
      <trkpt lat="38.4044" lon="14.95889">
        <ele>296.223511</ele>
        <time>2013-09-13T10:17:03Z</time>
      </trkpt>
      <trkpt lat="38.40442" lon="14.9589">
        <ele>297.184692</ele>
        <time>2013-09-13T10:17:05Z</time>
      </trkpt>
      <trkpt lat="38.40452" lon="14.95896">
        <ele>296.704102</ele>
        <time>2013-09-13T10:17:13Z</time>
      </trkpt>
      <trkpt lat="38.40472" lon="14.9591">
        <ele>298.626709</ele>
        <time>2013-09-13T10:17:30Z</time>
      </trkpt>
      <trkpt lat="38.40474" lon="14.95911">
        <ele>302.952515</ele>
        <time>2013-09-13T10:17:32Z</time>
      </trkpt>
      <trkpt lat="38.40477" lon="14.95912">
        <ele>303.433228</ele>
        <time>2013-09-13T10:17:34Z</time>
      </trkpt>
      <trkpt lat="38.4048" lon="14.95912">
        <ele>301.51062</ele>
        <time>2013-09-13T10:17:36Z</time>
      </trkpt>
      <trkpt lat="38.40489" lon="14.95915">
        <ele>298.146118</ele>
        <time>2013-09-13T10:17:44Z</time>
      </trkpt>
      <trkpt lat="38.40491" lon="14.95915">
        <ele>296.223511</ele>
        <time>2013-09-13T10:17:46Z</time>
      </trkpt>
      <trkpt lat="38.40493" lon="14.95916">
        <ele>299.588013</ele>
        <time>2013-09-13T10:17:48Z</time>
      </trkpt>
      <trkpt lat="38.40494" lon="14.95916">
        <ele>296.704102</ele>
        <time>2013-09-13T10:17:49Z</time>
      </trkpt>
      <trkpt lat="38.40494" lon="14.95916">
        <ele>297.184692</ele>
        <time>2013-09-13T10:17:50Z</time>
      </trkpt>
      <trkpt lat="38.40502" lon="14.95919">
        <ele>296.223511</ele>
        <time>2013-09-13T10:17:59Z</time>
      </trkpt>
      <trkpt lat="38.40502" lon="14.95919">
        <ele>300.549316</ele>
        <time>2013-09-13T10:18:02Z</time>
      </trkpt>
      <trkpt lat="38.40501" lon="14.95919">
        <ele>303.91394</ele>
        <time>2013-09-13T10:18:04Z</time>
      </trkpt>
      <trkpt lat="38.40501" lon="14.95919">
        <ele>300.549316</ele>
        <time>2013-09-13T10:18:06Z</time>
      </trkpt>
      <trkpt lat="38.40502" lon="14.9592">
        <ele>298.626709</ele>
        <time>2013-09-13T10:18:27Z</time>
      </trkpt>
      <trkpt lat="38.40513" lon="14.95927">
        <ele>297.665405</ele>
        <time>2013-09-13T10:18:54Z</time>
      </trkpt>
      <trkpt lat="38.40531" lon="14.95936">
        <ele>294.300781</ele>
        <time>2013-09-13T10:19:13Z</time>
      </trkpt>
      <trkpt lat="38.40549" lon="14.95949">
        <ele>292.378174</ele>
        <time>2013-09-13T10:19:32Z</time>
      </trkpt>
      <trkpt lat="38.40564" lon="14.95957">
        <ele>289.974854</ele>
        <time>2013-09-13T10:19:49Z</time>
      </trkpt>
      <trkpt lat="38.40567" lon="14.95958">
        <ele>286.610229</ele>
        <time>2013-09-13T10:19:55Z</time>
      </trkpt>
      <trkpt lat="38.40568" lon="14.95949">
        <ele>283.245605</ele>
        <time>2013-09-13T10:20:06Z</time>
      </trkpt>
      <trkpt lat="38.40569" lon="14.95941">
        <ele>281.803589</ele>
        <time>2013-09-13T10:20:21Z</time>
      </trkpt>
      <trkpt lat="38.40571" lon="14.95941">
        <ele>281.322998</ele>
        <time>2013-09-13T10:20:26Z</time>
      </trkpt>
      <trkpt lat="38.4057" lon="14.95939">
        <ele>282.765015</ele>
        <time>2013-09-13T10:20:29Z</time>
      </trkpt>
      <trkpt lat="38.40574" lon="14.95936">
        <ele>279.880859</ele>
        <time>2013-09-13T10:20:39Z</time>
      </trkpt>
      <trkpt lat="38.40574" lon="14.95932">
        <ele>277.477661</ele>
        <time>2013-09-13T10:20:44Z</time>
      </trkpt>
      <trkpt lat="38.40576" lon="14.95929">
        <ele>276.516357</ele>
        <time>2013-09-13T10:20:57Z</time>
      </trkpt>
      <trkpt lat="38.4058" lon="14.95925">
        <ele>273.632446</ele>
        <time>2013-09-13T10:21:10Z</time>
      </trkpt>
      <trkpt lat="38.40582" lon="14.95918">
        <ele>272.671143</ele>
        <time>2013-09-13T10:21:22Z</time>
      </trkpt>
      <trkpt lat="38.40583" lon="14.95914">
        <ele>270.2677</ele>
        <time>2013-09-13T10:21:33Z</time>
      </trkpt>
      <trkpt lat="38.40588" lon="14.95912">
        <ele>269.787109</ele>
        <time>2013-09-13T10:21:47Z</time>
      </trkpt>
      <trkpt lat="38.40591" lon="14.95912">
        <ele>267.864502</ele>
        <time>2013-09-13T10:21:53Z</time>
      </trkpt>
      <trkpt lat="38.40594" lon="14.95913">
        <ele>264.499878</ele>
        <time>2013-09-13T10:22:03Z</time>
      </trkpt>
      <trkpt lat="38.40594" lon="14.95904">
        <ele>262.577148</ele>
        <time>2013-09-13T10:22:17Z</time>
      </trkpt>
      <trkpt lat="38.40595" lon="14.95895">
        <ele>260.17395</ele>
        <time>2013-09-13T10:22:31Z</time>
      </trkpt>
      <trkpt lat="38.40595" lon="14.95894">
        <ele>261.615967</ele>
        <time>2013-09-13T10:22:34Z</time>
      </trkpt>
      <trkpt lat="38.40604" lon="14.95892">
        <ele>259.212646</ele>
        <time>2013-09-13T10:22:49Z</time>
      </trkpt>
      <trkpt lat="38.40611" lon="14.95888">
        <ele>256.809326</ele>
        <time>2013-09-13T10:22:59Z</time>
      </trkpt>
      <trkpt lat="38.40612" lon="14.95886">
        <ele>256.809326</ele>
        <time>2013-09-13T10:23:01Z</time>
      </trkpt>
      <trkpt lat="38.40619" lon="14.95878">
        <ele>255.36731</ele>
        <time>2013-09-13T10:23:09Z</time>
      </trkpt>
      <trkpt lat="38.40625" lon="14.95872">
        <ele>253.444702</ele>
        <time>2013-09-13T10:23:16Z</time>
      </trkpt>
      <trkpt lat="38.40646" lon="14.95871">
        <ele>254.406006</ele>
        <time>2013-09-13T10:23:36Z</time>
      </trkpt>
      <trkpt lat="38.40649" lon="14.95872">
        <ele>254.406006</ele>
        <time>2013-09-13T10:23:39Z</time>
      </trkpt>
      <trkpt lat="38.40652" lon="14.95871">
        <ele>251.041382</ele>
        <time>2013-09-13T10:23:42Z</time>
      </trkpt>
      <trkpt lat="38.40654" lon="14.9587">
        <ele>248.157593</ele>
        <time>2013-09-13T10:23:45Z</time>
      </trkpt>
      <trkpt lat="38.40654" lon="14.95867">
        <ele>249.599487</ele>
        <time>2013-09-13T10:23:48Z</time>
      </trkpt>
      <trkpt lat="38.40653" lon="14.95865">
        <ele>252.963989</ele>
        <time>2013-09-13T10:23:50Z</time>
      </trkpt>
      <trkpt lat="38.40648" lon="14.95856">
        <ele>254.406006</ele>
        <time>2013-09-13T10:24:00Z</time>
      </trkpt>
      <trkpt lat="38.40646" lon="14.95853">
        <ele>250.560791</ele>
        <time>2013-09-13T10:24:05Z</time>
      </trkpt>
      <trkpt lat="38.40645" lon="14.95851">
        <ele>246.715454</ele>
        <time>2013-09-13T10:24:08Z</time>
      </trkpt>
      <trkpt lat="38.40645" lon="14.95851">
        <ele>246.715454</ele>
        <time>2013-09-13T10:24:09Z</time>
      </trkpt>
      <trkpt lat="38.40644" lon="14.95845">
        <ele>243.35083</ele>
        <time>2013-09-13T10:24:22Z</time>
      </trkpt>
      <trkpt lat="38.40642" lon="14.95841">
        <ele>242.870239</ele>
        <time>2013-09-13T10:24:31Z</time>
      </trkpt>
      <trkpt lat="38.4064" lon="14.95832">
        <ele>239.986206</ele>
        <time>2013-09-13T10:24:44Z</time>
      </trkpt>
      <trkpt lat="38.40639" lon="14.95825">
        <ele>236.621704</ele>
        <time>2013-09-13T10:24:55Z</time>
      </trkpt>
      <trkpt lat="38.40636" lon="14.95815">
        <ele>234.218384</ele>
        <time>2013-09-13T10:25:08Z</time>
      </trkpt>
      <trkpt lat="38.40633" lon="14.95803">
        <ele>231.814941</ele>
        <time>2013-09-13T10:25:25Z</time>
      </trkpt>
      <trkpt lat="38.4063" lon="14.95788">
        <ele>228.450439</ele>
        <time>2013-09-13T10:25:42Z</time>
      </trkpt>
      <trkpt lat="38.4063" lon="14.95787">
        <ele>228.450439</ele>
        <time>2013-09-13T10:25:43Z</time>
      </trkpt>
      <trkpt lat="38.40628" lon="14.95782">
        <ele>227.008545</ele>
        <time>2013-09-13T10:25:49Z</time>
      </trkpt>
      <trkpt lat="38.40627" lon="14.95777">
        <ele>226.047119</ele>
        <time>2013-09-13T10:25:54Z</time>
      </trkpt>
      <trkpt lat="38.40627" lon="14.95773">
        <ele>224.124512</ele>
        <time>2013-09-13T10:25:58Z</time>
      </trkpt>
      <trkpt lat="38.40623" lon="14.95764">
        <ele>223.643799</ele>
        <time>2013-09-13T10:26:19Z</time>
      </trkpt>
      <trkpt lat="38.40618" lon="14.95752">
        <ele>222.682495</ele>
        <time>2013-09-13T10:26:56Z</time>
      </trkpt>
      <trkpt lat="38.40616" lon="14.9575">
        <ele>221.240601</ele>
        <time>2013-09-13T10:26:59Z</time>
      </trkpt>
      <trkpt lat="38.4061" lon="14.95734">
        <ele>218.356567</ele>
        <time>2013-09-13T10:27:17Z</time>
      </trkpt>
      <trkpt lat="38.40609" lon="14.95732">
        <ele>216.914673</ele>
        <time>2013-09-13T10:27:19Z</time>
      </trkpt>
      <trkpt lat="38.40605" lon="14.95723">
        <ele>214.03064</ele>
        <time>2013-09-13T10:27:29Z</time>
      </trkpt>
      <trkpt lat="38.40598" lon="14.95711">
        <ele>212.588623</ele>
        <time>2013-09-13T10:27:44Z</time>
      </trkpt>
      <trkpt lat="38.40586" lon="14.95695">
        <ele>210.666016</ele>
        <time>2013-09-13T10:28:00Z</time>
      </trkpt>
      <trkpt lat="38.4057" lon="14.95678">
        <ele>209.224121</ele>
        <time>2013-09-13T10:28:19Z</time>
      </trkpt>
      <trkpt lat="38.40553" lon="14.95661">
        <ele>206.340088</ele>
        <time>2013-09-13T10:28:38Z</time>
      </trkpt>
      <trkpt lat="38.40546" lon="14.95655">
        <ele>205.378784</ele>
        <time>2013-09-13T10:28:46Z</time>
      </trkpt>
      <trkpt lat="38.40543" lon="14.95654">
        <ele>205.859497</ele>
        <time>2013-09-13T10:28:50Z</time>
      </trkpt>
      <trkpt lat="38.40528" lon="14.95638">
        <ele>202.975464</ele>
        <time>2013-09-13T10:29:07Z</time>
      </trkpt>
      <trkpt lat="38.40523" lon="14.95634">
        <ele>202.494873</ele>
        <time>2013-09-13T10:29:13Z</time>
      </trkpt>
      <trkpt lat="38.40519" lon="14.95629">
        <ele>201.533569</ele>
        <time>2013-09-13T10:29:19Z</time>
      </trkpt>
      <trkpt lat="38.40499" lon="14.95614">
        <ele>199.61084</ele>
        <time>2013-09-13T10:29:40Z</time>
      </trkpt>
      <trkpt lat="38.40482" lon="14.95597">
        <ele>199.61084</ele>
        <time>2013-09-13T10:29:58Z</time>
      </trkpt>
      <trkpt lat="38.40464" lon="14.95583">
        <ele>196.726929</ele>
        <time>2013-09-13T10:30:18Z</time>
      </trkpt>
      <trkpt lat="38.40446" lon="14.95574">
        <ele>193.843018</ele>
        <time>2013-09-13T10:30:33Z</time>
      </trkpt>
      <trkpt lat="38.40424" lon="14.95559">
        <ele>189.997681</ele>
        <time>2013-09-13T10:30:55Z</time>
      </trkpt>
      <trkpt lat="38.40408" lon="14.95555">
        <ele>187.11377</ele>
        <time>2013-09-13T10:31:12Z</time>
      </trkpt>
      <trkpt lat="38.4039" lon="14.9555">
        <ele>183.749023</ele>
        <time>2013-09-13T10:31:31Z</time>
      </trkpt>
      <trkpt lat="38.40383" lon="14.95542">
        <ele>180.384521</ele>
        <time>2013-09-13T10:31:45Z</time>
      </trkpt>
      <trkpt lat="38.40392" lon="14.95538">
        <ele>177.981201</ele>
        <time>2013-09-13T10:31:57Z</time>
      </trkpt>
      <trkpt lat="38.40403" lon="14.95528">
        <ele>175.09729</ele>
        <time>2013-09-13T10:32:12Z</time>
      </trkpt>
      <trkpt lat="38.40413" lon="14.95521">
        <ele>171.252075</ele>
        <time>2013-09-13T10:32:25Z</time>
      </trkpt>
      <trkpt lat="38.40425" lon="14.95517">
        <ele>169.329468</ele>
        <time>2013-09-13T10:32:39Z</time>
      </trkpt>
      <trkpt lat="38.40445" lon="14.95509">
        <ele>166.445313</ele>
        <time>2013-09-13T10:33:02Z</time>
      </trkpt>
      <trkpt lat="38.4046" lon="14.95504">
        <ele>163.080811</ele>
        <time>2013-09-13T10:33:20Z</time>
      </trkpt>
      <trkpt lat="38.40462" lon="14.95504">
        <ele>162.119507</ele>
        <time>2013-09-13T10:33:22Z</time>
      </trkpt>
      <trkpt lat="38.40473" lon="14.955">
        <ele>158.754761</ele>
        <time>2013-09-13T10:33:33Z</time>
      </trkpt>
      <trkpt lat="38.40488" lon="14.95497">
        <ele>155.390259</ele>
        <time>2013-09-13T10:33:48Z</time>
      </trkpt>
      <trkpt lat="38.40507" lon="14.95495">
        <ele>152.025757</ele>
        <time>2013-09-13T10:34:06Z</time>
      </trkpt>
      <trkpt lat="38.40519" lon="14.95495">
        <ele>148.661011</ele>
        <time>2013-09-13T10:34:17Z</time>
      </trkpt>
      <trkpt lat="38.40539" lon="14.95495">
        <ele>146.738403</ele>
        <time>2013-09-13T10:34:36Z</time>
      </trkpt>
      <trkpt lat="38.40545" lon="14.95497">
        <ele>144.815796</ele>
        <time>2013-09-13T10:34:42Z</time>
      </trkpt>
      <trkpt lat="38.40564" lon="14.955">
        <ele>143.373657</ele>
        <time>2013-09-13T10:35:00Z</time>
      </trkpt>
      <trkpt lat="38.40571" lon="14.955">
        <ele>140.489868</ele>
        <time>2013-09-13T10:35:08Z</time>
      </trkpt>
      <trkpt lat="38.40585" lon="14.95502">
        <ele>137.605835</ele>
        <time>2013-09-13T10:35:25Z</time>
      </trkpt>
      <trkpt lat="38.40596" lon="14.95509">
        <ele>134.241211</ele>
        <time>2013-09-13T10:35:37Z</time>
      </trkpt>
      <trkpt lat="38.406" lon="14.9551">
        <ele>132.318604</ele>
        <time>2013-09-13T10:35:41Z</time>
      </trkpt>
      <trkpt lat="38.40615" lon="14.95508">
        <ele>128.954102</ele>
        <time>2013-09-13T10:35:56Z</time>
      </trkpt>
      <trkpt lat="38.40625" lon="14.95508">
        <ele>126.069946</ele>
        <time>2013-09-13T10:36:07Z</time>
      </trkpt>
      <trkpt lat="38.40642" lon="14.95518">
        <ele>124.147339</ele>
        <time>2013-09-13T10:36:28Z</time>
      </trkpt>
      <trkpt lat="38.40658" lon="14.95516">
        <ele>120.302124</ele>
        <time>2013-09-13T10:36:46Z</time>
      </trkpt>
      <trkpt lat="38.4066" lon="14.95517">
        <ele>121.26355</ele>
        <time>2013-09-13T10:36:49Z</time>
      </trkpt>
      <trkpt lat="38.40663" lon="14.95517">
        <ele>119.821411</ele>
        <time>2013-09-13T10:36:52Z</time>
      </trkpt>
      <trkpt lat="38.40669" lon="14.95522">
        <ele>118.379395</ele>
        <time>2013-09-13T10:36:59Z</time>
      </trkpt>
      <trkpt lat="38.40676" lon="14.95526">
        <ele>117.418213</ele>
        <time>2013-09-13T10:37:06Z</time>
      </trkpt>
      <trkpt lat="38.4069" lon="14.9553">
        <ele>115.495605</ele>
        <time>2013-09-13T10:37:23Z</time>
      </trkpt>
      <trkpt lat="38.40701" lon="14.95533">
        <ele>112.130981</ele>
        <time>2013-09-13T10:37:38Z</time>
      </trkpt>
      <trkpt lat="38.40712" lon="14.95538">
        <ele>108.766235</ele>
        <time>2013-09-13T10:37:52Z</time>
      </trkpt>
      <trkpt lat="38.40723" lon="14.95549">
        <ele>106.843628</ele>
        <time>2013-09-13T10:38:08Z</time>
      </trkpt>
      <trkpt lat="38.40724" lon="14.9555">
        <ele>106.363037</ele>
        <time>2013-09-13T10:38:10Z</time>
      </trkpt>
      <trkpt lat="38.4074" lon="14.95557">
        <ele>102.998291</ele>
        <time>2013-09-13T10:38:26Z</time>
      </trkpt>
      <trkpt lat="38.40753" lon="14.95558">
        <ele>100.114502</ele>
        <time>2013-09-13T10:38:41Z</time>
      </trkpt>
      <trkpt lat="38.40754" lon="14.95558">
        <ele>99.633789</ele>
        <time>2013-09-13T10:38:42Z</time>
      </trkpt>
      <trkpt lat="38.40768" lon="14.95567">
        <ele>96.749878</ele>
        <time>2013-09-13T10:39:00Z</time>
      </trkpt>
      <trkpt lat="38.4078" lon="14.95573">
        <ele>93.865845</ele>
        <time>2013-09-13T10:39:17Z</time>
      </trkpt>
      <trkpt lat="38.40783" lon="14.95575">
        <ele>91.462524</ele>
        <time>2013-09-13T10:39:22Z</time>
      </trkpt>
      <trkpt lat="38.40793" lon="14.95579">
        <ele>88.578735</ele>
        <time>2013-09-13T10:39:36Z</time>
      </trkpt>
      <trkpt lat="38.40802" lon="14.95581">
        <ele>85.213989</ele>
        <time>2013-09-13T10:39:48Z</time>
      </trkpt>
      <trkpt lat="38.4081" lon="14.95584">
        <ele>81.849365</ele>
        <time>2013-09-13T10:39:58Z</time>
      </trkpt>
      <trkpt lat="38.40818" lon="14.95587">
        <ele>78.965454</ele>
        <time>2013-09-13T10:40:10Z</time>
      </trkpt>
      <trkpt lat="38.4083" lon="14.95591">
        <ele>76.081421</ele>
        <time>2013-09-13T10:40:27Z</time>
      </trkpt>
      <trkpt lat="38.40836" lon="14.95593">
        <ele>73.678223</ele>
        <time>2013-09-13T10:40:36Z</time>
      </trkpt>
      <trkpt lat="38.40837" lon="14.95592">
        <ele>73.678223</ele>
        <time>2013-09-13T10:40:37Z</time>
      </trkpt>
      <trkpt lat="38.40836" lon="14.95578">
        <ele>71.755493</ele>
        <time>2013-09-13T10:40:47Z</time>
      </trkpt>
      <trkpt lat="38.40824" lon="14.95545">
        <ele>69.352295</ele>
        <time>2013-09-13T10:41:09Z</time>
      </trkpt>
      <trkpt lat="38.4081" lon="14.95508">
        <ele>68.390869</ele>
        <time>2013-09-13T10:41:33Z</time>
      </trkpt>
      <trkpt lat="38.40799" lon="14.95479">
        <ele>67.910278</ele>
        <time>2013-09-13T10:41:53Z</time>
      </trkpt>
      <trkpt lat="38.40792" lon="14.95465">
        <ele>66.468262</ele>
        <time>2013-09-13T10:42:08Z</time>
      </trkpt>
      <trkpt lat="38.40792" lon="14.95466">
        <ele>66.948975</ele>
        <time>2013-09-13T10:42:23Z</time>
      </trkpt>
      <trkpt lat="38.4079" lon="14.9546">
        <ele>66.468262</ele>
        <time>2013-09-13T10:43:24Z</time>
      </trkpt>
      <trkpt lat="38.40783" lon="14.95439">
        <ele>62.622925</ele>
        <time>2013-09-13T10:43:42Z</time>
      </trkpt>
      <trkpt lat="38.40783" lon="14.95438">
        <ele>62.622925</ele>
        <time>2013-09-13T10:43:43Z</time>
      </trkpt>
      <trkpt lat="38.40786" lon="14.95426">
        <ele>61.661743</ele>
        <time>2013-09-13T10:43:57Z</time>
      </trkpt>
      <trkpt lat="38.40788" lon="14.95425">
        <ele>60.700317</ele>
        <time>2013-09-13T10:44:00Z</time>
      </trkpt>
      <trkpt lat="38.40802" lon="14.95411">
        <ele>58.297119</ele>
        <time>2013-09-13T10:44:22Z</time>
      </trkpt>
      <trkpt lat="38.40806" lon="14.95404">
        <ele>56.855103</ele>
        <time>2013-09-13T10:44:29Z</time>
      </trkpt>
      <trkpt lat="38.40807" lon="14.95401">
        <ele>55.893799</ele>
        <time>2013-09-13T10:44:32Z</time>
      </trkpt>
      <trkpt lat="38.40815" lon="14.95392">
        <ele>52.529175</ele>
        <time>2013-09-13T10:44:45Z</time>
      </trkpt>
      <trkpt lat="38.40822" lon="14.95387">
        <ele>51.087158</ele>
        <time>2013-09-13T10:44:54Z</time>
      </trkpt>
      <trkpt lat="38.40826" lon="14.95386">
        <ele>49.645264</ele>
        <time>2013-09-13T10:44:59Z</time>
      </trkpt>
      <trkpt lat="38.40836" lon="14.95385">
        <ele>46.28064</ele>
        <time>2013-09-13T10:45:11Z</time>
      </trkpt>
      <trkpt lat="38.40838" lon="14.95385">
        <ele>46.76123</ele>
        <time>2013-09-13T10:45:13Z</time>
      </trkpt>
      <trkpt lat="38.40857" lon="14.95379">
        <ele>42.916016</ele>
        <time>2013-09-13T10:45:31Z</time>
      </trkpt>
      <trkpt lat="38.40867" lon="14.9537">
        <ele>41.473999</ele>
        <time>2013-09-13T10:45:48Z</time>
      </trkpt>
      <trkpt lat="38.40867" lon="14.95371">
        <ele>43.396606</ele>
        <time>2013-09-13T10:45:54Z</time>
      </trkpt>
      <trkpt lat="38.40873" lon="14.95371">
        <ele>42.916016</ele>
        <time>2013-09-13T10:46:00Z</time>
      </trkpt>
      <trkpt lat="38.4088" lon="14.95379">
        <ele>42.435425</ele>
        <time>2013-09-13T10:46:20Z</time>
      </trkpt>
      <trkpt lat="38.40883" lon="14.95379">
        <ele>41.954712</ele>
        <time>2013-09-13T10:46:43Z</time>
      </trkpt>
      <trkpt lat="38.40898" lon="14.95397">
        <ele>40.993408</ele>
        <time>2013-09-13T10:47:01Z</time>
      </trkpt>
      <trkpt lat="38.40918" lon="14.95425">
        <ele>40.032104</ele>
        <time>2013-09-13T10:47:23Z</time>
      </trkpt>
      <trkpt lat="38.40944" lon="14.95455">
        <ele>38.590088</ele>
        <time>2013-09-13T10:47:48Z</time>
      </trkpt>
      <trkpt lat="38.40965" lon="14.95484">
        <ele>35.706055</ele>
        <time>2013-09-13T10:48:12Z</time>
      </trkpt>
      <trkpt lat="38.40985" lon="14.95508">
        <ele>32.822266</ele>
        <time>2013-09-13T10:48:33Z</time>
      </trkpt>
      <trkpt lat="38.41008" lon="14.95535">
        <ele>31.860718</ele>
        <time>2013-09-13T10:48:57Z</time>
      </trkpt>
      <trkpt lat="38.4103" lon="14.95562">
        <ele>30.418823</ele>
        <time>2013-09-13T10:49:21Z</time>
      </trkpt>
      <trkpt lat="38.41052" lon="14.95589">
        <ele>28.015503</ele>
        <time>2013-09-13T10:49:46Z</time>
      </trkpt>
      <trkpt lat="38.41056" lon="14.95592">
        <ele>27.534912</ele>
        <time>2013-09-13T10:49:51Z</time>
      </trkpt>
      <trkpt lat="38.4106" lon="14.95589">
        <ele>27.534912</ele>
        <time>2013-09-13T10:49:56Z</time>
      </trkpt>
      <trkpt lat="38.41081" lon="14.95607">
        <ele>25.131714</ele>
        <time>2013-09-13T10:50:17Z</time>
      </trkpt>
      <trkpt lat="38.41106" lon="14.95613">
        <ele>22.247559</ele>
        <time>2013-09-13T10:50:38Z</time>
      </trkpt>
      <trkpt lat="38.41131" lon="14.95595">
        <ele>20.805664</ele>
        <time>2013-09-13T10:50:59Z</time>
      </trkpt>
      <trkpt lat="38.41161" lon="14.95572">
        <ele>19.36377</ele>
        <time>2013-09-13T10:51:25Z</time>
      </trkpt>
      <trkpt lat="38.41187" lon="14.95552">
        <ele>17.921753</ele>
        <time>2013-09-13T10:51:48Z</time>
      </trkpt>
      <trkpt lat="38.41209" lon="14.95537">
        <ele>17.441162</ele>
        <time>2013-09-13T10:52:08Z</time>
      </trkpt>
      <trkpt lat="38.41236" lon="14.95516">
        <ele>16.479736</ele>
        <time>2013-09-13T10:52:33Z</time>
      </trkpt>
      <trkpt lat="38.41246" lon="14.9551">
        <ele>15.999023</ele>
        <time>2013-09-13T10:52:45Z</time>
      </trkpt>
      <trkpt lat="38.41249" lon="14.95507">
        <ele>15.999023</ele>
        <time>2013-09-13T10:52:49Z</time>
      </trkpt>
      <trkpt lat="38.41275" lon="14.95488">
        <ele>15.03772</ele>
        <time>2013-09-13T10:53:12Z</time>
      </trkpt>
      <trkpt lat="38.41295" lon="14.95472">
        <ele>14.557007</ele>
        <time>2013-09-13T10:53:31Z</time>
      </trkpt>
      <trkpt lat="38.41306" lon="14.95464">
        <ele>14.076416</ele>
        <time>2013-09-13T10:53:42Z</time>
      </trkpt>
      <trkpt lat="38.41322" lon="14.95455">
        <ele>14.076416</ele>
        <time>2013-09-13T10:54:01Z</time>
      </trkpt>
      <trkpt lat="38.41323" lon="14.95455">
        <ele>13.595825</ele>
        <time>2013-09-13T10:54:13Z</time>
      </trkpt>
      <trkpt lat="38.41339" lon="14.95488">
        <ele>14.076416</ele>
        <time>2013-09-13T10:54:36Z</time>
      </trkpt>
      <trkpt lat="38.41356" lon="14.95517">
        <ele>13.595825</ele>
        <time>2013-09-13T10:54:58Z</time>
      </trkpt>
      <trkpt lat="38.41371" lon="14.95545">
        <ele>13.115112</ele>
        <time>2013-09-13T10:55:18Z</time>
      </trkpt>
      <trkpt lat="38.41389" lon="14.95578">
        <ele>13.115112</ele>
        <time>2013-09-13T10:55:41Z</time>
      </trkpt>
      <trkpt lat="38.41406" lon="14.9561">
        <ele>12.634399</ele>
        <time>2013-09-13T10:56:03Z</time>
      </trkpt>
      <trkpt lat="38.41417" lon="14.95628">
        <ele>12.634399</ele>
        <time>2013-09-13T10:56:16Z</time>
      </trkpt>
      <trkpt lat="38.41432" lon="14.95652">
        <ele>11.673218</ele>
        <time>2013-09-13T10:56:35Z</time>
      </trkpt>
      <trkpt lat="38.41446" lon="14.95681">
        <ele>11.673218</ele>
        <time>2013-09-13T10:56:54Z</time>
      </trkpt>
      <trkpt lat="38.41451" lon="14.95689">
        <ele>12.153809</ele>
        <time>2013-09-13T10:57:00Z</time>
      </trkpt>
      <trkpt lat="38.41469" lon="14.95721">
        <ele>11.192505</ele>
        <time>2013-09-13T10:57:23Z</time>
      </trkpt>
      <trkpt lat="38.41477" lon="14.95734">
        <ele>10.711792</ele>
        <time>2013-09-13T10:57:33Z</time>
      </trkpt>
      <trkpt lat="38.41492" lon="14.95757">
        <ele>10.711792</ele>
        <time>2013-09-13T10:57:51Z</time>
      </trkpt>
      <trkpt lat="38.41502" lon="14.95777">
        <ele>10.711792</ele>
        <time>2013-09-13T10:58:05Z</time>
      </trkpt>
      <trkpt lat="38.41517" lon="14.95806">
        <ele>11.673218</ele>
        <time>2013-09-13T10:58:25Z</time>
      </trkpt>
      <trkpt lat="38.41537" lon="14.95838">
        <ele>11.192505</ele>
        <time>2013-09-13T10:58:49Z</time>
      </trkpt>
      <trkpt lat="38.41556" lon="14.95871">
        <ele>10.711792</ele>
        <time>2013-09-13T10:59:14Z</time>
      </trkpt>
      <trkpt lat="38.4156" lon="14.95903">
        <ele>9.75061</ele>
        <time>2013-09-13T10:59:34Z</time>
      </trkpt>
      <trkpt lat="38.41576" lon="14.95923">
        <ele>9.269897</ele>
        <time>2013-09-13T10:59:54Z</time>
      </trkpt>
      <trkpt lat="38.41586" lon="14.95921">
        <ele>9.269897</ele>
        <time>2013-09-13T11:00:09Z</time>
      </trkpt>
      <trkpt lat="38.41611" lon="14.95917">
        <ele>8.308594</ele>
        <time>2013-09-13T11:00:29Z</time>
      </trkpt>
      <trkpt lat="38.41635" lon="14.95913">
        <ele>7.827881</ele>
        <time>2013-09-13T11:00:49Z</time>
      </trkpt>
      <trkpt lat="38.41662" lon="14.95906">
        <ele>7.347168</ele>
        <time>2013-09-13T11:01:11Z</time>
      </trkpt>
      <trkpt lat="38.41674" lon="14.95904">
        <ele>8.308594</ele>
        <time>2013-09-13T11:01:27Z</time>
      </trkpt>
      <trkpt lat="38.41679" lon="14.95914">
        <ele>9.269897</ele>
        <time>2013-09-13T11:01:35Z</time>
      </trkpt>
      <trkpt lat="38.4169" lon="14.95933">
        <ele>8.308594</ele>
        <time>2013-09-13T11:01:50Z</time>
      </trkpt>
      <trkpt lat="38.41695" lon="14.95962">
        <ele>7.827881</ele>
        <time>2013-09-13T11:02:11Z</time>
      </trkpt>
      <trkpt lat="38.41686" lon="14.95966">
        <ele>7.347168</ele>
        <time>2013-09-13T11:02:28Z</time>
      </trkpt>
      <trkpt lat="38.4168" lon="14.9596">
        <ele>6.866455</ele>
        <time>2013-09-13T11:02:43Z</time>
      </trkpt>
      <trkpt lat="38.41678" lon="14.95963">
        <ele>8.789185</ele>
        <time>2013-09-13T11:03:02Z</time>
      </trkpt>
      <trkpt lat="38.41678" lon="14.95963">
        <ele>8.789185</ele>
        <time>2013-09-13T11:03:08Z</time>
      </trkpt>
      <trkpt lat="38.41678" lon="14.95963">
        <ele>8.308594</ele>
        <time>2013-09-13T11:03:54Z</time>
      </trkpt>
    </trkseg>
  </trk>
</gpx>